Simon Princess — LEGX — position and weather

sailwx.info

Track history (hours):
 
Tides and Currents Weather Stations Pressure Air Temp Water Temp Dewpoint Dewpoint Depression Visibility Wind Speed Wind Dir Waves Ship Positions

Simon Princess

Last reported at 2018-Sep-19 18:01 UTC. Time now 2018-Sep-19 18:20 UTC.
Position N 64°20' E 010°27'.

Length 38 m; draft 4.9 m.

Type: Other ship. MMSI: 258961000.

Date/timePositionNaut miles runAvg speedWind from/ knotsBaromVisibWave heightAir tempDewpointWater temp
2018-Sep-19 18:01N 64°20' E 010°27'0 9.6
2018-Sep-19 18:00N 64°20' E 010°27'5 9.5
2018-Sep-19 17:30N 64°16' E 010°20'4 9.3
2018-Sep-19 17:03N 64°13' E 010°13'0 9.8
2018-Sep-19 17:00N 64°13' E 010°12'5 9.9
2018-Sep-19 16:30N 64°09' E 010°06'4 9.9
2018-Sep-19 16:03N 64°06' E 009°58'110.0
2018-Sep-19 16:00N 64°05' E 009°57'5 9.9
2018-Sep-19 15:31N 64°03' E 009°48'4 9.9
2018-Sep-19 15:03N 63°58' E 009°48'110.0
2018-Sep-19 15:00N 63°58' E 009°48'5 9.6
2018-Sep-19 14:30N 63°53' E 009°44'10 9.5
2018-Sep-19 13:30N 63°45' E 009°32'4 9.7
2018-Sep-19 13:03N 63°41' E 009°29'010.0
2018-Sep-19 13:00N 63°40' E 009°29'5 9.4
2018-Sep-19 12:30N 63°36' E 009°26'4 9.9
2018-Sep-19 12:03N 63°33' E 009°18'1 9.9
2018-Sep-19 12:00N 63°33' E 009°17'5 9.9
2018-Sep-19 11:30N 63°30' E 009°07'4 9.5
2018-Sep-19 11:03N 63°29' E 008°59'1 9.4
2018-Sep-19 11:00N 63°28' E 008°58'5 9.2
2018-Sep-19 10:30N 63°27' E 008°48'4 9.2
2018-Sep-19 10:03N 63°25' E 008°40'1 9.5
2018-Sep-19 10:00N 63°25' E 008°39'5 9.4
2018-Sep-19 09:30N 63°23' E 008°29'4 9.1
2018-Sep-19 09:03N 63°21' E 008°21'0 9.4
2018-Sep-19 09:00N 63°21' E 008°21'5 9.6
2018-Sep-19 08:30N 63°17' E 008°13'4 9.6
2018-Sep-19 08:03N 63°15' E 008°05'1 9.6
2018-Sep-19 08:00N 63°15' E 008°04'5 9.5
2018-Sep-19 07:30N 63°13' E 007°55'4 9.0
2018-Sep-19 07:03N 63°10' E 007°48'0 9.4
2018-Sep-19 07:00N 63°09' E 007°48'3 5.1
2018-Sep-19 06:29N 63°07' E 007°45'0 0.0
2018-Sep-19 06:02N 63°07' E 007°45'0 0.0
2018-Sep-19 05:59N 63°07' E 007°45'0 0.0
2018-Sep-19 05:29N 63°07' E 007°45'0 0.0
2018-Sep-19 05:02N 63°07' E 007°45'0 0.1
2018-Sep-19 04:59N 63°07' E 007°45'0 0.0
2018-Sep-19 04:29N 63°07' E 007°45'0 0.0
2018-Sep-19 04:02N 63°07' E 007°46'0 0.1
2018-Sep-19 03:59N 63°07' E 007°46'0 0.0
2018-Sep-19 03:29N 63°07' E 007°45'0 0.0
2018-Sep-19 03:02N 63°07' E 007°45'0 0.0
2018-Sep-19 02:59N 63°07' E 007°45'0 0.0
2018-Sep-19 02:29N 63°07' E 007°45'0 0.0
2018-Sep-19 02:02N 63°07' E 007°45'0 0.0
2018-Sep-19 01:59N 63°07' E 007°45'0 0.0
2018-Sep-19 01:29N 63°07' E 007°46'0 0.0
2018-Sep-19 01:02N 63°07' E 007°45'0 0.1
2018-Sep-19 00:59N 63°07' E 007°45'0 0.0
2018-Sep-19 00:29N 63°07' E 007°45'0 0.0
2018-Sep-19 00:02N 63°07' E 007°45'0 0.0
2018-Sep-18 23:59N 63°07' E 007°45'0 0.0
2018-Sep-18 23:29N 63°07' E 007°45'0 0.0
2018-Sep-18 23:02N 63°07' E 007°45'0 0.1
2018-Sep-18 22:59N 63°07' E 007°45'0 0.0
2018-Sep-18 22:29N 63°07' E 007°45'0 0.0
2018-Sep-18 22:02N 63°07' E 007°45'0 0.1
2018-Sep-18 21:59N 63°07' E 007°45'0 0.0
2018-Sep-18 21:29N 63°07' E 007°45'0 0.0
2018-Sep-18 21:02N 63°07' E 007°45'0 0.0
2018-Sep-18 20:59N 63°07' E 007°45'0 0.0
2018-Sep-18 20:29N 63°07' E 007°46'0 0.0
2018-Sep-18 19:59N 63°07' E 007°46'0 0.0
2018-Sep-18 19:29N 63°07' E 007°46'0 0.0
2018-Sep-18 19:02N 63°07' E 007°45'0 0.1
2018-Sep-18 18:59N 63°07' E 007°45'0 0.0
2018-Sep-18 18:29N 63°07' E 007°45'0 0.0
2018-Sep-18 18:02N 63°07' E 007°45'0 0.0
2018-Sep-18 17:59N 63°07' E 007°45'0 0.0
2018-Sep-18 17:29N 63°07' E 007°45'0 0.0
2018-Sep-18 17:02N 63°07' E 007°45'0 0.0
2018-Sep-18 16:59N 63°07' E 007°46'0 0.0
2018-Sep-18 16:29N 63°07' E 007°46'0 0.0
2018-Sep-18 16:02N 63°07' E 007°46'0 0.0
2018-Sep-18 15:59N 63°07' E 007°46'0 0.0
2018-Sep-18 15:29N 63°07' E 007°45'0 0.0
2018-Sep-18 15:02N 63°07' E 007°45'0 0.0
2018-Sep-18 14:59N 63°07' E 007°45'0 0.0
2018-Sep-18 14:29N 63°07' E 007°46'0 0.0
2018-Sep-18 13:59N 63°07' E 007°45'0 0.0
2018-Sep-18 13:29N 63°07' E 007°46'0 0.0
2018-Sep-18 13:02N 63°07' E 007°45'0 0.1
2018-Sep-18 12:59N 63°07' E 007°45'0 0.0
2018-Sep-18 12:29N 63°07' E 007°45'0 0.0
2018-Sep-18 12:02N 63°07' E 007°45'0 0.0
2018-Sep-18 11:59N 63°07' E 007°46'0 0.0
2018-Sep-18 11:29N 63°07' E 007°45'0 0.0
2018-Sep-18 11:02N 63°07' E 007°45'0 0.0
2018-Sep-18 10:59N 63°07' E 007°45'0 0.0
2018-Sep-18 10:29N 63°07' E 007°45'0 0.0
2018-Sep-18 10:02N 63°07' E 007°45'0 0.1
2018-Sep-18 09:59N 63°07' E 007°45'0 0.0
2018-Sep-18 09:29N 63°07' E 007°45'0 0.0
2018-Sep-18 09:02N 63°07' E 007°45'0 0.0
2018-Sep-18 08:59N 63°07' E 007°45'0 0.0
2018-Sep-18 08:29N 63°07' E 007°46'0 0.0
2018-Sep-18 08:02N 63°07' E 007°45'0 0.0
2018-Sep-18 07:59N 63°07' E 007°45'0 0.0
2018-Sep-18 07:29N 63°07' E 007°45'0 0.0
2018-Sep-18 07:02N 63°07' E 007°45'0 0.0
2018-Sep-18 06:59N 63°07' E 007°45'0 0.0
2018-Sep-18 06:29N 63°07' E 007°45'0 0.0
2018-Sep-18 06:02N 63°07' E 007°45'0 0.1
2018-Sep-18 05:59N 63°07' E 007°45'0 0.0
2018-Sep-18 05:29N 63°07' E 007°45'0 0.0
2018-Sep-18 05:02N 63°07' E 007°45'0 0.0
2018-Sep-18 04:59N 63°07' E 007°45'0 0.0
2018-Sep-18 04:29N 63°07' E 007°45'0 0.0
2018-Sep-18 04:02N 63°07' E 007°45'0 0.0
2018-Sep-18 03:59N 63°07' E 007°45'0 0.0
2018-Sep-18 03:29N 63°07' E 007°45'0 0.0
2018-Sep-18 03:02N 63°07' E 007°45'0 0.0
2018-Sep-18 02:59N 63°07' E 007°45'0 0.0
2018-Sep-18 02:29N 63°07' E 007°45'0 0.0
2018-Sep-18 02:02N 63°07' E 007°45'0 0.1
2018-Sep-18 01:59N 63°07' E 007°45'0 0.0
2018-Sep-18 01:29N 63°07' E 007°45'0 0.0
2018-Sep-18 01:02N 63°07' E 007°45'0 0.0
2018-Sep-18 00:59N 63°07' E 007°45'0 0.0
2018-Sep-18 00:29N 63°07' E 007°45'0 0.0
2018-Sep-18 00:02N 63°07' E 007°45'0 0.1
2018-Sep-17 23:59N 63°07' E 007°45'0 0.0
2018-Sep-17 23:29N 63°07' E 007°45'0 0.0
2018-Sep-17 23:02N 63°07' E 007°45'0 0.0
2018-Sep-17 22:59N 63°07' E 007°45'0 0.0
2018-Sep-17 22:29N 63°07' E 007°45'0 0.0
2018-Sep-17 22:02N 63°07' E 007°45'0 0.0
2018-Sep-17 21:59N 63°07' E 007°46'0 0.0
2018-Sep-17 21:29N 63°07' E 007°45'0 0.0
2018-Sep-17 21:02N 63°07' E 007°45'0 0.1
2018-Sep-17 20:59N 63°07' E 007°45'0 0.0
2018-Sep-17 20:29N 63°07' E 007°45'0 0.0
2018-Sep-17 20:02N 63°07' E 007°45'0 0.0
2018-Sep-17 19:59N 63°07' E 007°46'0 0.0
2018-Sep-17 19:29N 63°07' E 007°45'0 0.0
2018-Sep-17 19:02N 63°07' E 007°45'0 0.0
2018-Sep-17 18:59N 63°07' E 007°46'0 0.0
2018-Sep-17 18:29N 63°07' E 007°45'0 0.0
2018-Sep-17 18:02N 63°07' E 007°45'0 0.0
2018-Sep-17 17:59N 63°07' E 007°46'0 0.0
2018-Sep-17 17:29N 63°07' E 007°46'0 0.0
2018-Sep-17 17:02N 63°07' E 007°45'0 0.1
2018-Sep-17 16:59N 63°07' E 007°45'0 0.0
2018-Sep-17 16:29N 63°07' E 007°45'0 0.0
2018-Sep-17 16:02N 63°07' E 007°45'0 0.0
2018-Sep-17 15:59N 63°07' E 007°45'0 0.0
2018-Sep-17 15:29N 63°07' E 007°46'0 0.0
2018-Sep-17 15:02N 63°07' E 007°45'0 0.0
2018-Sep-17 14:59N 63°07' E 007°45'0 0.0
2018-Sep-17 14:29N 63°07' E 007°45'0 0.0
2018-Sep-17 13:59N 63°07' E 007°45'0 0.0
2018-Sep-17 13:29N 63°07' E 007°46'0 0.0
2018-Sep-17 13:02N 63°07' E 007°45'0 0.0
2018-Sep-17 12:59N 63°07' E 007°46'0 0.0
2018-Sep-17 12:29N 63°07' E 007°45'0 0.0
2018-Sep-17 12:02N 63°07' E 007°46'0 0.0
2018-Sep-17 11:59N 63°07' E 007°46'0 0.0
2018-Sep-17 11:29N 63°07' E 007°45'0 0.0
2018-Sep-17 11:02N 63°07' E 007°45'0 0.0
2018-Sep-17 10:59N 63°07' E 007°45'0 0.0
2018-Sep-17 10:29N 63°07' E 007°45'0 0.0
2018-Sep-17 10:02N 63°07' E 007°45'0 0.0
2018-Sep-17 09:59N 63°07' E 007°45'0 0.0
2018-Sep-17 09:29N 63°07' E 007°46'0 0.0
2018-Sep-17 09:02N 63°07' E 007°45'0 0.0
2018-Sep-17 08:59N 63°07' E 007°45'0 0.0
2018-Sep-17 08:29N 63°07' E 007°45'0 0.0
2018-Sep-17 08:02N 63°07' E 007°45'0 0.0
2018-Sep-17 07:59N 63°07' E 007°45'0 0.0
2018-Sep-17 07:29N 63°07' E 007°45'0 0.0
2018-Sep-17 07:02N 63°07' E 007°45'0 0.0
2018-Sep-17 06:59N 63°07' E 007°45'0 0.0
2018-Sep-17 06:29N 63°07' E 007°45'0 0.0
2018-Sep-17 06:02N 63°07' E 007°45'0 0.1
2018-Sep-17 05:59N 63°07' E 007°45'0 0.0
2018-Sep-17 05:29N 63°07' E 007°45'0 0.0
2018-Sep-17 05:02N 63°07' E 007°45'0 0.0
2018-Sep-17 04:59N 63°07' E 007°45'0 0.0
2018-Sep-17 04:29N 63°07' E 007°45'0 0.0
2018-Sep-17 04:02N 63°07' E 007°46'0 0.0
2018-Sep-17 03:59N 63°07' E 007°46'0 0.0
2018-Sep-17 03:29N 63°07' E 007°45'0 0.0
2018-Sep-17 03:02N 63°07' E 007°45'0 0.0
2018-Sep-17 02:59N 63°07' E 007°45'0 0.0
2018-Sep-17 02:29N 63°07' E 007°45'0 0.0
2018-Sep-17 02:02N 63°07' E 007°45'0 0.0
2018-Sep-17 01:59N 63°07' E 007°46'0 0.0
2018-Sep-17 01:29N 63°07' E 007°45'0 0.0
2018-Sep-17 01:02N 63°07' E 007°45'0 0.1
2018-Sep-17 00:59N 63°07' E 007°45'0 0.0
2018-Sep-17 00:29N 63°07' E 007°45'0 0.0
2018-Sep-17 00:02N 63°07' E 007°45'0 0.0
2018-Sep-16 23:59N 63°07' E 007°45'0 0.0
2018-Sep-16 23:29N 63°07' E 007°46'0 0.0
2018-Sep-16 23:02N 63°07' E 007°45'0 0.0
2018-Sep-16 22:59N 63°07' E 007°45'0 0.0
2018-Sep-16 22:29N 63°07' E 007°45'0 0.0
2018-Sep-16 22:02N 63°07' E 007°45'0 0.0
2018-Sep-16 21:59N 63°07' E 007°46'0 0.0
2018-Sep-16 21:29N 63°07' E 007°45'0 0.0
2018-Sep-16 21:02N 63°07' E 007°45'0 0.0
2018-Sep-16 20:59N 63°07' E 007°46'0 0.0
2018-Sep-16 20:29N 63°07' E 007°45'0 0.0
2018-Sep-16 20:02N 63°07' E 007°46'0 0.0
2018-Sep-16 19:59N 63°07' E 007°46'0 0.0
2018-Sep-16 19:29N 63°07' E 007°46'0 0.0
2018-Sep-16 19:02N 63°07' E 007°45'0 0.0
2018-Sep-16 18:59N 63°07' E 007°46'0 0.0
2018-Sep-16 18:29N 63°07' E 007°45'0 0.0
2018-Sep-16 18:02N 63°07' E 007°45'0 0.1
2018-Sep-16 17:59N 63°07' E 007°45'0 0.0
2018-Sep-16 17:29N 63°07' E 007°45'0 0.0
2018-Sep-16 17:02N 63°07' E 007°45'0 0.0
2018-Sep-16 16:59N 63°07' E 007°45'0 0.0
2018-Sep-16 16:29N 63°07' E 007°46'0 0.0
2018-Sep-16 16:02N 63°07' E 007°45'0 0.1
2018-Sep-16 15:59N 63°07' E 007°45'0 0.0
2018-Sep-16 15:29N 63°07' E 007°45'0 0.0
2018-Sep-16 15:02N 63°07' E 007°45'0 0.0
2018-Sep-16 14:59N 63°07' E 007°45'0 0.0
2018-Sep-16 13:59N 63°07' E 007°46'0 0.0
2018-Sep-16 13:29N 63°07' E 007°46'0 0.0
2018-Sep-16 13:02N 63°07' E 007°45'0 0.0
2018-Sep-16 12:59N 63°07' E 007°45'0 0.0
2018-Sep-16 12:29N 63°07' E 007°45'0 0.0
2018-Sep-16 12:02N 63°07' E 007°45'0 0.0
2018-Sep-16 11:59N 63°07' E 007°45'0 0.0
2018-Sep-16 11:29N 63°07' E 007°45'0 0.0
2018-Sep-16 11:02N 63°07' E 007°45'0 0.0
2018-Sep-16 10:59N 63°07' E 007°45'0 0.0
2018-Sep-16 10:29N 63°07' E 007°45'0 0.0
2018-Sep-16 10:02N 63°07' E 007°45'0 0.0
2018-Sep-16 09:59N 63°07' E 007°45'0 0.0
2018-Sep-16 09:29N 63°07' E 007°45'0 0.0
2018-Sep-16 09:02N 63°07' E 007°45'0 0.0
2018-Sep-16 08:59N 63°07' E 007°45'0 0.0
2018-Sep-16 08:29N 63°07' E 007°45'0 0.0
2018-Sep-16 08:02N 63°07' E 007°45'0 0.0
2018-Sep-16 07:59N 63°07' E 007°45'0 0.0
2018-Sep-16 07:29N 63°07' E 007°46'0 0.0
2018-Sep-16 07:02N 63°07' E 007°46'0 0.0
2018-Sep-16 06:59N 63°07' E 007°45'0 0.0
2018-Sep-16 06:29N 63°07' E 007°45'0 0.0
2018-Sep-16 06:02N 63°07' E 007°45'0 0.0
2018-Sep-16 05:59N 63°07' E 007°45'0 0.0
2018-Sep-16 05:29N 63°07' E 007°45'0 0.0
2018-Sep-16 05:02N 63°07' E 007°45'0 0.0
2018-Sep-16 04:59N 63°07' E 007°45'0 0.0
2018-Sep-16 04:29N 63°07' E 007°46'0 0.0
2018-Sep-16 04:02N 63°07' E 007°46'0 0.1
2018-Sep-16 03:59N 63°07' E 007°45'0 0.0
2018-Sep-16 03:29N 63°07' E 007°45'0 0.0
2018-Sep-16 03:02N 63°07' E 007°45'0 0.0
2018-Sep-16 02:59N 63°07' E 007°45'0 0.0
2018-Sep-16 02:29N 63°07' E 007°45'0 0.0
2018-Sep-16 02:02N 63°07' E 007°45'0 0.0
2018-Sep-16 01:59N 63°07' E 007°46'0 0.0
2018-Sep-16 01:29N 63°07' E 007°46'0 0.0
2018-Sep-16 01:02N 63°07' E 007°45'0 0.1
2018-Sep-16 00:59N 63°07' E 007°45'0 0.0
2018-Sep-16 00:29N 63°07' E 007°45'0 0.0
2018-Sep-16 00:02N 63°07' E 007°45'0 0.0
2018-Sep-15 23:59N 63°07' E 007°45'0 0.0
2018-Sep-15 23:29N 63°07' E 007°46'0 0.0
2018-Sep-15 23:02N 63°07' E 007°45'0 0.1
2018-Sep-15 22:59N 63°07' E 007°45'0 0.0
2018-Sep-15 22:29N 63°07' E 007°45'0 0.0
2018-Sep-15 22:02N 63°07' E 007°45'0 0.0
2018-Sep-15 21:59N 63°07' E 007°46'0 0.0
2018-Sep-15 21:29N 63°07' E 007°45'0 0.0
2018-Sep-15 21:02N 63°07' E 007°46'0 0.0
2018-Sep-15 20:59N 63°07' E 007°46'0 0.0
2018-Sep-15 20:26N 63°07' E 007°45'0 0.0
2018-Sep-15 20:02N 63°07' E 007°46'0 0.1
2018-Sep-15 19:59N 63°07' E 007°45'0 0.0
2018-Sep-15 19:29N 63°07' E 007°46'0 0.0
2018-Sep-15 19:02N 63°07' E 007°45'0 0.1
2018-Sep-15 18:56N 63°07' E 007°46'0 0.0
2018-Sep-15 18:29N 63°07' E 007°45'0 0.0
2018-Sep-15 18:02N 63°07' E 007°46'0 0.0
2018-Sep-15 17:59N 63°07' E 007°46'0 0.0
2018-Sep-15 17:29N 63°07' E 007°45'0 0.0
2018-Sep-15 17:02N 63°07' E 007°45'0 0.0
2018-Sep-15 16:59N 63°07' E 007°45'0 0.0
2018-Sep-15 16:29N 63°07' E 007°46'0 0.0
2018-Sep-15 16:02N 63°07' E 007°45'0 0.0
2018-Sep-15 15:59N 63°07' E 007°45'0 0.0
2018-Sep-15 15:29N 63°07' E 007°45'0 0.0
2018-Sep-15 14:59N 63°07' E 007°45'0 0.0
2018-Sep-15 14:29N 63°07' E 007°45'0 0.0
2018-Sep-15 13:59N 63°07' E 007°46'0 0.0
2018-Sep-15 13:29N 63°07' E 007°45'0 0.0
2018-Sep-15 13:02N 63°07' E 007°46'0 0.0
2018-Sep-15 12:59N 63°07' E 007°46'0 0.0
2018-Sep-15 12:29N 63°07' E 007°45'0 0.0
2018-Sep-15 12:02N 63°07' E 007°46'0 0.1
2018-Sep-15 11:59N 63°07' E 007°45'0 0.0
2018-Sep-15 11:29N 63°07' E 007°45'0 0.0
2018-Sep-15 11:02N 63°07' E 007°45'0 0.0
2018-Sep-15 10:59N 63°07' E 007°45'0 0.0
2018-Sep-15 10:29N 63°07' E 007°45'0 0.0
2018-Sep-15 10:02N 63°07' E 007°45'0 0.0
2018-Sep-15 09:59N 63°07' E 007°45'0 0.0
2018-Sep-15 09:29N 63°07' E 007°45'0 0.0
2018-Sep-15 09:02N 63°07' E 007°45'0 0.0
2018-Sep-15 08:59N 63°07' E 007°45'0 0.0
2018-Sep-15 08:29N 63°07' E 007°45'0 0.0
2018-Sep-15 08:02N 63°07' E 007°46'0 0.0
2018-Sep-15 07:59N 63°07' E 007°45'0 0.0
2018-Sep-15 07:29N 63°07' E 007°45'0 0.0
2018-Sep-15 07:02N 63°07' E 007°46'0 0.1
2018-Sep-15 06:59N 63°07' E 007°45'0 0.0
2018-Sep-15 06:29N 63°07' E 007°45'0 0.0
2018-Sep-15 06:02N 63°07' E 007°45'0 0.0
2018-Sep-15 05:59N 63°07' E 007°45'0 0.0
2018-Sep-15 05:29N 63°07' E 007°45'0 0.0
2018-Sep-15 05:02N 63°07' E 007°45'0 0.0
2018-Sep-15 04:59N 63°07' E 007°45'0 0.0
2018-Sep-15 04:29N 63°07' E 007°46'0 0.0
2018-Sep-15 04:02N 63°07' E 007°46'0 0.0
2018-Sep-15 03:59N 63°07' E 007°45'0 0.0
2018-Sep-15 03:29N 63°07' E 007°45'0 0.0
2018-Sep-15 03:02N 63°07' E 007°45'0 0.0
2018-Sep-15 02:59N 63°07' E 007°45'0 0.0
2018-Sep-15 02:29N 63°07' E 007°46'0 0.0
2018-Sep-15 02:02N 63°07' E 007°45'0 0.1
2018-Sep-15 01:59N 63°07' E 007°46'0 0.0
2018-Sep-15 01:29N 63°07' E 007°45'0 0.0
2018-Sep-15 01:02N 63°07' E 007°46'0 0.0
2018-Sep-15 00:59N 63°07' E 007°45'0 0.0
2018-Sep-15 00:29N 63°07' E 007°46'0 0.0
2018-Sep-15 00:02N 63°07' E 007°45'0 0.0
2018-Sep-14 23:59N 63°07' E 007°45'0 0.0
2018-Sep-14 23:29N 63°07' E 007°46'0 0.0
2018-Sep-14 23:02N 63°07' E 007°45'0 0.0
2018-Sep-14 22:59N 63°07' E 007°45'0 0.0
2018-Sep-14 22:29N 63°07' E 007°46'0 0.0
2018-Sep-14 22:02N 63°07' E 007°45'0 0.0
2018-Sep-14 21:59N 63°07' E 007°45'0 0.0
2018-Sep-14 21:29N 63°07' E 007°45'0 0.0
2018-Sep-14 21:02N 63°07' E 007°46'0 0.0
2018-Sep-14 20:59N 63°07' E 007°46'0 0.0
2018-Sep-14 20:29N 63°07' E 007°46'0 0.0
2018-Sep-14 20:02N 63°07' E 007°46'0 0.0
2018-Sep-14 19:59N 63°07' E 007°45'0 0.0
2018-Sep-14 19:29N 63°07' E 007°45'0 0.0
2018-Sep-14 19:02N 63°07' E 007°45'0 0.1
2018-Sep-14 18:59N 63°07' E 007°45'0 0.0
2018-Sep-14 18:29N 63°07' E 007°46'0 0.0
2018-Sep-14 18:02N 63°07' E 007°46'0 0.0
2018-Sep-14 17:59N 63°07' E 007°45'0 0.0
2018-Sep-14 17:29N 63°07' E 007°45'0 0.0
2018-Sep-14 17:02N 63°07' E 007°46'0 0.1
2018-Sep-14 16:59N 63°07' E 007°45'0 0.0
2018-Sep-14 16:29N 63°07' E 007°46'0 0.0
2018-Sep-14 16:02N 63°07' E 007°45'0 0.0
2018-Sep-14 15:59N 63°07' E 007°46'0 0.0
2018-Sep-14 15:29N 63°07' E 007°45'0 0.0
2018-Sep-14 15:02N 63°07' E 007°45'0 0.1
2018-Sep-14 14:59N 63°07' E 007°45'0 0.0
2018-Sep-14 14:29N 63°07' E 007°46'0 0.0
2018-Sep-14 13:59N 63°07' E 007°45'0 0.0
2018-Sep-14 13:29N 63°07' E 007°46'0 0.0
2018-Sep-14 13:02N 63°07' E 007°45'0 0.0
2018-Sep-14 12:59N 63°07' E 007°45'0 0.0
2018-Sep-14 12:29N 63°07' E 007°45'0 0.0
2018-Sep-14 12:02N 63°07' E 007°46'0 0.0
2018-Sep-14 11:59N 63°07' E 007°45'0 0.0
2018-Sep-14 11:29N 63°07' E 007°46'0 0.0
2018-Sep-14 11:02N 63°07' E 007°45'0 0.1
2018-Sep-14 10:59N 63°07' E 007°45'0 0.0
2018-Sep-14 10:29N 63°07' E 007°45'0 0.0
2018-Sep-14 10:02N 63°07' E 007°45'0 0.1
2018-Sep-14 09:59N 63°07' E 007°45'0 0.0
2018-Sep-14 09:29N 63°07' E 007°45'0 0.4
2018-Sep-14 09:03N 63°07' E 007°46'0 5.2
2018-Sep-14 09:00N 63°07' E 007°46'0 1.0
2018-Sep-14 08:30N 63°08' E 007°47'1 2.9
2018-Sep-14 08:03N 63°09' E 007°48'0 0.6
2018-Sep-14 08:00N 63°09' E 007°48'1 2.7
2018-Sep-14 07:30N 63°08' E 007°47'1 2.0
2018-Sep-14 07:03N 63°07' E 007°45'0 0.0
2018-Sep-14 07:00N 63°07' E 007°45'0 0.0
2018-Sep-14 06:30N 63°07' E 007°45'0 0.0
2018-Sep-14 06:03N 63°07' E 007°45'0 0.0
2018-Sep-14 06:00N 63°07' E 007°45'0 0.0
2018-Sep-14 05:30N 63°07' E 007°45'0 0.0
2018-Sep-14 05:03N 63°07' E 007°45'0 0.0
2018-Sep-14 05:00N 63°07' E 007°45'0 0.0
2018-Sep-14 04:30N 63°07' E 007°45'0 0.0
2018-Sep-14 04:03N 63°07' E 007°45'0 0.0
2018-Sep-14 04:00N 63°07' E 007°46'0 0.0
2018-Sep-14 03:30N 63°07' E 007°45'0 0.0
2018-Sep-14 03:03N 63°07' E 007°46'0 0.0
2018-Sep-14 03:00N 63°07' E 007°45'0 0.0
2018-Sep-14 02:30N 63°07' E 007°45'0 0.0
2018-Sep-14 02:03N 63°07' E 007°45'0 0.0
2018-Sep-14 02:00N 63°07' E 007°45'0 0.0
2018-Sep-14 01:30N 63°07' E 007°45'0 0.0
2018-Sep-14 01:03N 63°07' E 007°45'0 0.1
2018-Sep-14 01:00N 63°07' E 007°45'0 0.0
2018-Sep-14 00:30N 63°07' E 007°45'0 0.0
2018-Sep-14 00:03N 63°07' E 007°45'0 0.0
2018-Sep-14 00:00N 63°07' E 007°45'0 0.0
2018-Sep-13 23:30N 63°07' E 007°46'0 0.0
2018-Sep-13 23:03N 63°07' E 007°45'0 0.0
2018-Sep-13 23:00N 63°07' E 007°45'0 0.0
2018-Sep-13 22:30N 63°07' E 007°45'0 0.0
2018-Sep-13 22:03N 63°07' E 007°45'0 0.0
2018-Sep-13 22:00N 63°07' E 007°46'0 0.0
2018-Sep-13 21:30N 63°07' E 007°45'0 0.0
2018-Sep-13 21:03N 63°07' E 007°45'0 0.0
2018-Sep-13 21:00N 63°07' E 007°45'0 0.0
2018-Sep-13 20:30N 63°07' E 007°46'0 0.0
2018-Sep-13 20:03N 63°07' E 007°46'0 0.0
2018-Sep-13 20:00N 63°07' E 007°46'0 0.0
2018-Sep-13 19:30N 63°07' E 007°46'0 0.0
2018-Sep-13 19:03N 63°07' E 007°45'0 0.1
2018-Sep-13 19:00N 63°07' E 007°45'0 0.0
2018-Sep-13 18:30N 63°07' E 007°45'0 0.0
2018-Sep-13 18:03N 63°07' E 007°46'0 0.0
2018-Sep-13 18:00N 63°07' E 007°46'0 0.0
2018-Sep-13 17:30N 63°07' E 007°45'0 0.0
2018-Sep-13 17:03N 63°07' E 007°45'0 0.1
2018-Sep-13 17:00N 63°07' E 007°45'0 0.0
2018-Sep-13 16:30N 63°07' E 007°46'0 0.0
2018-Sep-13 16:03N 63°07' E 007°46'0 0.0
2018-Sep-13 16:00N 63°07' E 007°45'0 0.0
2018-Sep-13 15:30N 63°07' E 007°45'0 0.0
2018-Sep-13 15:03N 63°07' E 007°45'0 0.0
2018-Sep-13 15:00N 63°07' E 007°45'0 0.0
2018-Sep-13 14:30N 63°07' E 007°45'0 0.0
2018-Sep-13 14:00N 63°07' E 007°45'0 0.0
2018-Sep-13 13:30N 63°07' E 007°45'0 0.0
2018-Sep-13 13:03N 63°07' E 007°45'0 0.1
2018-Sep-13 13:00N 63°07' E 007°45'0 0.0
2018-Sep-13 12:30N 63°07' E 007°45'0 0.0
2018-Sep-13 12:03N 63°07' E 007°45'0 0.1
2018-Sep-13 12:00N 63°07' E 007°45'0 0.0
2018-Sep-13 11:30N 63°07' E 007°45'0 0.0
2018-Sep-13 11:03N 63°07' E 007°45'0 0.1
2018-Sep-13 11:00N 63°07' E 007°45'0 0.0
2018-Sep-13 10:30N 63°07' E 007°45'0 0.0
2018-Sep-13 10:03N 63°07' E 007°45'0 0.0
2018-Sep-13 10:00N 63°07' E 007°45'0 0.0
2018-Sep-13 09:30N 63°07' E 007°45'0 0.0
2018-Sep-13 09:03N 63°07' E 007°45'0 0.0
2018-Sep-13 09:00N 63°07' E 007°45'0 0.0
2018-Sep-13 08:30N 63°07' E 007°45'0 0.0
2018-Sep-13 08:03N 63°07' E 007°45'0 0.1
2018-Sep-13 08:00N 63°07' E 007°46'0 0.0
2018-Sep-13 07:30N 63°07' E 007°45'0 0.0
2018-Sep-13 07:03N 63°07' E 007°45'0 0.0
2018-Sep-13 07:00N 63°07' E 007°45'0 0.0
2018-Sep-13 06:30N 63°07' E 007°45'0 0.0
2018-Sep-13 06:03N 63°07' E 007°45'0 0.1
2018-Sep-13 06:00N 63°07' E 007°45'0 0.0
2018-Sep-13 05:30N 63°07' E 007°45'0 0.0
2018-Sep-13 05:03N 63°07' E 007°45'0 0.0
2018-Sep-13 05:00N 63°07' E 007°45'0 0.0
2018-Sep-13 04:30N 63°07' E 007°45'0 0.0
2018-Sep-13 04:03N 63°07' E 007°45'0 0.0
2018-Sep-13 04:00N 63°07' E 007°45'0 0.0
2018-Sep-13 03:30N 63°07' E 007°46'0 0.0
2018-Sep-13 03:03N 63°07' E 007°45'0 0.0
2018-Sep-13 03:00N 63°07' E 007°45'0 0.0
2018-Sep-13 02:30N 63°07' E 007°45'0 0.0
2018-Sep-13 02:03N 63°07' E 007°45'0 0.0
2018-Sep-13 02:00N 63°07' E 007°45'0 0.0
2018-Sep-13 01:30N 63°07' E 007°45'0 0.0
2018-Sep-13 01:03N 63°07' E 007°45'0 0.0
2018-Sep-13 01:00N 63°07' E 007°45'0 0.0
2018-Sep-13 00:30N 63°07' E 007°45'0 0.0
2018-Sep-13 00:03N 63°07' E 007°45'0 0.0
2018-Sep-13 00:00N 63°07' E 007°45'0 0.0
2018-Sep-12 23:30N 63°07' E 007°45'0 0.0
2018-Sep-12 23:03N 63°07' E 007°45'0 0.0
2018-Sep-12 23:00N 63°07' E 007°45'0 0.0
2018-Sep-12 22:30N 63°07' E 007°45'0 0.0
2018-Sep-12 22:03N 63°07' E 007°45'0 0.0
2018-Sep-12 22:00N 63°07' E 007°46'0 0.0
2018-Sep-12 21:30N 63°07' E 007°46'0 0.0
2018-Sep-12 21:03N 63°07' E 007°45'0 0.0
2018-Sep-12 21:00N 63°07' E 007°45'0 0.0
2018-Sep-12 20:30N 63°07' E 007°46'0 0.0
2018-Sep-12 20:03N 63°07' E 007°46'0 0.0
2018-Sep-12 20:00N 63°07' E 007°45'0 0.0
2018-Sep-12 19:30N 63°07' E 007°45'0 0.0
2018-Sep-12 19:03N 63°07' E 007°46'0 0.1
2018-Sep-12 19:00N 63°07' E 007°46'0 0.0
2018-Sep-12 18:30N 63°07' E 007°45'0 0.0
2018-Sep-12 18:03N 63°07' E 007°46'0 0.0
2018-Sep-12 18:00N 63°07' E 007°46'0 0.0
2018-Sep-12 17:30N 63°07' E 007°46'0 0.0
2018-Sep-12 17:03N 63°07' E 007°45'0 0.0
2018-Sep-12 17:00N 63°07' E 007°45'0 0.0
2018-Sep-12 16:30N 63°07' E 007°46'0 0.0
2018-Sep-12 16:03N 63°07' E 007°45'0 0.0
2018-Sep-12 16:00N 63°07' E 007°46'0 0.0
2018-Sep-12 15:30N 63°07' E 007°45'0 0.0
2018-Sep-12 15:03N 63°07' E 007°45'0 0.0
2018-Sep-12 15:00N 63°07' E 007°45'0 0.0
2018-Sep-12 14:03N 63°07' E 007°45'0 0.1
2018-Sep-12 14:00N 63°07' E 007°45'0 0.0
2018-Sep-12 13:30N 63°07' E 007°46'0 0.0
2018-Sep-12 13:03N 63°07' E 007°45'0 0.0
2018-Sep-12 13:00N 63°07' E 007°45'0 0.0
2018-Sep-12 12:30N 63°07' E 007°45'0 0.0
2018-Sep-12 12:03N 63°07' E 007°45'0 0.1
2018-Sep-12 12:00N 63°07' E 007°45'0 0.0
2018-Sep-12 11:30N 63°07' E 007°45'0 0.0
2018-Sep-12 11:03N 63°07' E 007°45'0 0.0
2018-Sep-12 11:00N 63°07' E 007°45'0 0.0
2018-Sep-12 10:30N 63°07' E 007°45'0 0.0
2018-Sep-12 10:03N 63°07' E 007°45'0 0.0
2018-Sep-12 10:00N 63°07' E 007°45'0 0.0
2018-Sep-12 09:30N 63°07' E 007°45'0 0.0
2018-Sep-12 09:03N 63°07' E 007°45'0 0.0
2018-Sep-12 09:00N 63°07' E 007°45'0 0.0
2018-Sep-12 08:30N 63°07' E 007°45'0 0.0
2018-Sep-12 08:03N 63°07' E 007°45'0 0.0
2018-Sep-12 08:00N 63°07' E 007°45'0 0.0
2018-Sep-12 07:30N 63°07' E 007°45'0 0.0
2018-Sep-12 07:03N 63°07' E 007°45'0 0.1
2018-Sep-12 07:00N 63°07' E 007°45'0 0.0
2018-Sep-12 06:30N 63°07' E 007°45'0 0.0
2018-Sep-12 06:03N 63°07' E 007°45'0 0.0
2018-Sep-12 06:00N 63°07' E 007°45'0 0.0
2018-Sep-12 05:30N 63°07' E 007°45'0 0.0
2018-Sep-12 05:03N 63°07' E 007°45'0 0.0
2018-Sep-12 05:00N 63°07' E 007°45'0 0.0
2018-Sep-12 04:30N 63°07' E 007°45'0 0.0
2018-Sep-12 04:03N 63°07' E 007°45'0 0.0
2018-Sep-12 04:00N 63°07' E 007°45'0 0.0
2018-Sep-12 03:30N 63°07' E 007°45'0 0.0
2018-Sep-12 03:03N 63°07' E 007°45'0 0.0
2018-Sep-12 03:00N 63°07' E 007°45'0 0.0
2018-Sep-12 02:30N 63°07' E 007°45'0 0.0
2018-Sep-12 02:03N 63°07' E 007°45'0 0.0
2018-Sep-12 02:00N 63°07' E 007°45'0 0.0
2018-Sep-12 01:30N 63°07' E 007°45'0 0.0
2018-Sep-12 01:03N 63°07' E 007°45'0 0.0
2018-Sep-12 01:00N 63°07' E 007°46'0 0.0
2018-Sep-12 00:30N 63°07' E 007°45'0 0.0
2018-Sep-12 00:03N 63°07' E 007°46'0 0.1
2018-Sep-12 00:00N 63°07' E 007°46'0 0.0
2018-Sep-11 23:30N 63°07' E 007°45'0 0.0
2018-Sep-11 23:03N 63°07' E 007°45'0 0.1
2018-Sep-11 23:00N 63°07' E 007°45'0 0.0
2018-Sep-11 22:30N 63°07' E 007°45'0 0.0
2018-Sep-11 22:03N 63°07' E 007°45'0 0.0
2018-Sep-11 22:00N 63°07' E 007°45'0 0.0
2018-Sep-11 21:30N 63°07' E 007°45'0 0.0
2018-Sep-11 21:03N 63°07' E 007°45'0 0.1
2018-Sep-11 21:00N 63°07' E 007°45'0 0.0
2018-Sep-11 20:30N 63°07' E 007°45'0 0.0
2018-Sep-11 20:03N 63°07' E 007°46'0 0.0
2018-Sep-11 20:00N 63°07' E 007°45'0 0.0
2018-Sep-11 19:30N 63°07' E 007°45'0 0.0
2018-Sep-11 19:03N 63°07' E 007°45'0 0.0
2018-Sep-11 19:00N 63°07' E 007°45'0 0.0
2018-Sep-11 18:30N 63°07' E 007°45'0 0.0
2018-Sep-11 18:03N 63°07' E 007°45'0 0.0
2018-Sep-11 18:00N 63°07' E 007°45'0 0.0
2018-Sep-11 17:30N 63°07' E 007°45'0 0.0
2018-Sep-11 17:03N 63°07' E 007°45'0 0.1
2018-Sep-11 17:00N 63°07' E 007°45'0 0.0
2018-Sep-11 16:30N 63°07' E 007°45'0 0.0
2018-Sep-11 16:03N 63°07' E 007°45'0 0.0
2018-Sep-11 16:00N 63°07' E 007°45'0 0.0
2018-Sep-11 15:30N 63°07' E 007°46'0 0.0
2018-Sep-11 15:03N 63°07' E 007°45'0 0.0
2018-Sep-11 15:00N 63°07' E 007°45'0 0.0
2018-Sep-11 14:30N 63°07' E 007°45'0 0.0
2018-Sep-11 14:00N 63°07' E 007°46'0 0.0
2018-Sep-11 13:30N 63°07' E 007°45'0 0.0
2018-Sep-11 13:03N 63°07' E 007°45'0 0.0
2018-Sep-11 13:00N 63°07' E 007°45'0 0.0
2018-Sep-11 12:30N 63°07' E 007°45'0 0.0
2018-Sep-11 12:03N 63°07' E 007°45'0 0.0
2018-Sep-11 12:00N 63°07' E 007°45'0 0.0
2018-Sep-11 11:30N 63°07' E 007°45'0 0.0
2018-Sep-11 11:03N 63°07' E 007°45'0 0.1
2018-Sep-11 11:00N 63°07' E 007°45'0 0.0
2018-Sep-11 10:30N 63°07' E 007°45'0 0.0
2018-Sep-11 10:03N 63°07' E 007°45'0 0.0
2018-Sep-11 10:00N 63°07' E 007°45'0 0.0
2018-Sep-11 09:30N 63°07' E 007°45'0 0.0
2018-Sep-11 09:03N 63°07' E 007°45'0 0.0
2018-Sep-11 09:00N 63°07' E 007°45'0 0.0
2018-Sep-11 08:30N 63°07' E 007°45'0 0.0
2018-Sep-11 08:03N 63°07' E 007°45'0 0.0
2018-Sep-11 08:00N 63°07' E 007°45'0 0.0
2018-Sep-11 07:30N 63°07' E 007°45'0 0.0
2018-Sep-11 07:03N 63°07' E 007°45'0 0.1
2018-Sep-11 07:00N 63°07' E 007°45'0 0.0
2018-Sep-11 06:30N 63°07' E 007°45'0 0.0
2018-Sep-11 06:03N 63°07' E 007°46'0 0.0
2018-Sep-11 06:00N 63°07' E 007°45'0 0.0
2018-Sep-11 05:30N 63°07' E 007°45'0 0.0
2018-Sep-11 05:03N 63°07' E 007°46'0 0.1
2018-Sep-11 05:00N 63°07' E 007°46'0 0.0
2018-Sep-11 04:30N 63°07' E 007°45'0 0.0
2018-Sep-11 04:03N 63°07' E 007°45'0 0.0
2018-Sep-11 04:00N 63°07' E 007°45'0 0.0
2018-Sep-11 03:30N 63°07' E 007°45'0 0.0
2018-Sep-11 03:03N 63°07' E 007°45'0 0.1
2018-Sep-11 03:00N 63°07' E 007°45'0 0.0
2018-Sep-11 02:30N 63°07' E 007°45'0 0.0
2018-Sep-11 02:03N 63°07' E 007°45'0 0.0
2018-Sep-11 02:00N 63°07' E 007°46'0 0.0
2018-Sep-11 01:30N 63°07' E 007°45'0 0.0
2018-Sep-11 01:03N 63°07' E 007°45'0 0.1
2018-Sep-11 01:00N 63°07' E 007°45'0 0.0
2018-Sep-11 00:30N 63°07' E 007°45'0 0.0
2018-Sep-11 00:03N 63°07' E 007°45'0 0.1
2018-Sep-11 00:00N 63°07' E 007°46'0 0.0
2018-Sep-10 23:30N 63°07' E 007°45'0 0.0
2018-Sep-10 23:03N 63°07' E 007°45'0 0.0
2018-Sep-10 23:00N 63°07' E 007°45'0 0.0
2018-Sep-10 22:30N 63°07' E 007°46'0 0.0
2018-Sep-10 22:03N 63°07' E 007°45'0 0.0
2018-Sep-10 22:00N 63°07' E 007°45'0 0.0
2018-Sep-10 21:30N 63°07' E 007°46'0 0.0
2018-Sep-10 21:03N 63°07' E 007°45'0 0.1
2018-Sep-10 21:00N 63°07' E 007°46'0 0.0
2018-Sep-10 20:30N 63°07' E 007°45'0 0.0
2018-Sep-10 20:03N 63°07' E 007°45'0 0.0
2018-Sep-10 20:00N 63°07' E 007°46'0 0.0
2018-Sep-10 19:30N 63°07' E 007°45'0 0.0
2018-Sep-10 19:03N 63°07' E 007°46'0 0.1
2018-Sep-10 18:57N 63°07' E 007°45'0 0.0
2018-Sep-10 18:30N 63°07' E 007°45'0 0.0
2018-Sep-10 18:03N 63°07' E 007°46'0 0.1
2018-Sep-10 18:00N 63°07' E 007°45'0 0.0
2018-Sep-10 17:30N 63°07' E 007°46'0 0.0
2018-Sep-10 17:03N 63°07' E 007°45'0 0.0
2018-Sep-10 17:00N 63°07' E 007°45'0 0.0
2018-Sep-10 16:30N 63°07' E 007°45'0 0.0
2018-Sep-10 16:03N 63°07' E 007°45'0 0.0
2018-Sep-10 16:00N 63°07' E 007°45'0 0.0
2018-Sep-10 15:30N 63°07' E 007°45'0 0.0
2018-Sep-10 15:03N 63°07' E 007°45'0 0.0
2018-Sep-10 15:00N 63°07' E 007°45'0 0.0
2018-Sep-10 14:03N 63°07' E 007°45'0 0.0
2018-Sep-10 14:00N 63°07' E 007°46'0 0.0
2018-Sep-10 13:30N 63°07' E 007°45'0 0.0
2018-Sep-10 13:03N 63°07' E 007°45'0 0.0
2018-Sep-10 13:00N 63°07' E 007°45'0 0.0
2018-Sep-10 12:30N 63°07' E 007°46'0 0.0
2018-Sep-10 12:03N 63°07' E 007°45'0 0.1
2018-Sep-10 12:00N 63°07' E 007°45'0 0.0
2018-Sep-10 11:30N 63°07' E 007°45'0 0.0
2018-Sep-10 11:03N 63°07' E 007°45'0 0.1
2018-Sep-10 10:57N 63°07' E 007°45'0 0.0
2018-Sep-10 10:30N 63°07' E 007°45'0 0.0
2018-Sep-10 10:00N 63°07' E 007°45'0 0.0
2018-Sep-10 09:30N 63°07' E 007°45'0 0.0
2018-Sep-10 09:03N 63°07' E 007°45'0 0.0
2018-Sep-10 09:00N 63°07' E 007°45'0 0.0
2018-Sep-10 08:30N 63°07' E 007°45'0 0.0
2018-Sep-10 08:03N 63°07' E 007°45'0 0.1
2018-Sep-10 08:00N 63°07' E 007°45'0 0.0
2018-Sep-10 07:30N 63°07' E 007°45'0 0.0
2018-Sep-10 07:03N 63°07' E 007°45'0 0.1
2018-Sep-10 07:00N 63°07' E 007°46'0 0.0
2018-Sep-10 06:30N 63°07' E 007°45'0 0.0
2018-Sep-10 06:03N 63°07' E 007°45'0 0.1
2018-Sep-10 06:00N 63°07' E 007°45'0 0.0
2018-Sep-10 05:30N 63°07' E 007°45'0 0.0
2018-Sep-10 05:03N 63°07' E 007°46'0 0.0
2018-Sep-10 05:00N 63°07' E 007°46'0 0.0
2018-Sep-10 04:30N 63°07' E 007°46'0 0.0
2018-Sep-10 04:03N 63°07' E 007°45'0 0.0
2018-Sep-10 04:00N 63°07' E 007°45'0 0.0
2018-Sep-10 03:30N 63°07' E 007°45'0 0.0
2018-Sep-10 03:03N 63°07' E 007°45'0 0.0
2018-Sep-10 03:00N 63°07' E 007°45'0 0.0
2018-Sep-10 02:30N 63°07' E 007°45'0 0.0
2018-Sep-10 02:03N 63°07' E 007°45'0 0.0
2018-Sep-10 02:00N 63°07' E 007°45'0 0.0
2018-Sep-10 01:30N 63°07' E 007°45'0 0.0
2018-Sep-10 01:03N 63°07' E 007°45'0 0.1
2018-Sep-10 01:00N 63°07' E 007°45'0 0.0
2018-Sep-10 00:30N 63°07' E 007°45'0 0.0
2018-Sep-10 00:03N 63°07' E 007°46'0 0.1
2018-Sep-10 00:00N 63°07' E 007°45'0 0.0
2018-Sep-09 23:30N 63°07' E 007°45'0 0.0
2018-Sep-09 23:03N 63°07' E 007°45'0 0.0
2018-Sep-09 23:00N 63°07' E 007°45'0 0.0
2018-Sep-09 22:30N 63°07' E 007°45'0 0.0
2018-Sep-09 22:03N 63°07' E 007°45'0 0.0
2018-Sep-09 22:00N 63°07' E 007°45'0 0.0
2018-Sep-09 21:30N 63°07' E 007°45'0 0.0
2018-Sep-09 21:03N 63°07' E 007°45'0 0.1
2018-Sep-09 21:00N 63°07' E 007°45'0 0.0
2018-Sep-09 20:30N 63°07' E 007°46'0 0.0
2018-Sep-09 20:03N 63°07' E 007°45'0 0.0
2018-Sep-09 20:00N 63°07' E 007°46'0 0.0
2018-Sep-09 19:30N 63°07' E 007°45'0 0.0
2018-Sep-09 19:03N 63°07' E 007°46'0 0.1
2018-Sep-09 19:00N 63°07' E 007°45'0 0.0
2018-Sep-09 18:30N 63°07' E 007°45'0 0.0
2018-Sep-09 18:03N 63°07' E 007°45'0 0.1
2018-Sep-09 18:00N 63°07' E 007°46'  
Track history (hours):
 
Tides and Currents Weather Stations Pressure Air Temp Water Temp Dewpoint Dewpoint Depression Visibility Wind Speed Wind Dir Waves Ship Positions

Simon Princess

Last reported at 2018-Sep-19 18:01 UTC. Time now 2018-Sep-19 18:20 UTC.
Position N 64°20' E 010°27'.

Length 38 m; draft 4.9 m.

Type: Other ship. MMSI: 258961000.

Date/timePositionNaut miles runAvg speedWind from/ knotsBaromVisibWave heightAir tempDewpointWater temp
2018-Sep-19 18:01N 64°20' E 010°27'0 9.6
2018-Sep-19 18:00N 64°20' E 010°27'5 9.5
2018-Sep-19 17:30N 64°16' E 010°20'4 9.3
2018-Sep-19 17:03N 64°13' E 010°13'0 9.8
2018-Sep-19 17:00N 64°13' E 010°12'5 9.9
2018-Sep-19 16:30N 64°09' E 010°06'4 9.9
2018-Sep-19 16:03N 64°06' E 009°58'110.0
2018-Sep-19 16:00N 64°05' E 009°57'5 9.9
2018-Sep-19 15:31N 64°03' E 009°48'4 9.9
2018-Sep-19 15:03N 63°58' E 009°48'110.0
2018-Sep-19 15:00N 63°58' E 009°48'5 9.6
2018-Sep-19 14:30N 63°53' E 009°44'10 9.5
2018-Sep-19 13:30N 63°45' E 009°32'4 9.7
2018-Sep-19 13:03N 63°41' E 009°29'010.0
2018-Sep-19 13:00N 63°40' E 009°29'5 9.4
2018-Sep-19 12:30N 63°36' E 009°26'4 9.9
2018-Sep-19 12:03N 63°33' E 009°18'1 9.9
2018-Sep-19 12:00N 63°33' E 009°17'5 9.9
2018-Sep-19 11:30N 63°30' E 009°07'4 9.5
2018-Sep-19 11:03N 63°29' E 008°59'1 9.4
2018-Sep-19 11:00N 63°28' E 008°58'5 9.2
2018-Sep-19 10:30N 63°27' E 008°48'4 9.2
2018-Sep-19 10:03N 63°25' E 008°40'1 9.5
2018-Sep-19 10:00N 63°25' E 008°39'5 9.4
2018-Sep-19 09:30N 63°23' E 008°29'4 9.1
2018-Sep-19 09:03N 63°21' E 008°21'0 9.4
2018-Sep-19 09:00N 63°21' E 008°21'5 9.6
2018-Sep-19 08:30N 63°17' E 008°13'4 9.6
2018-Sep-19 08:03N 63°15' E 008°05'1 9.6
2018-Sep-19 08:00N 63°15' E 008°04'5 9.5
2018-Sep-19 07:30N 63°13' E 007°55'4 9.0
2018-Sep-19 07:03N 63°10' E 007°48'0 9.4
2018-Sep-19 07:00N 63°09' E 007°48'3 5.1
2018-Sep-19 06:29N 63°07' E 007°45'0 0.0
2018-Sep-19 06:02N 63°07' E 007°45'0 0.0
2018-Sep-19 05:59N 63°07' E 007°45'0 0.0
2018-Sep-19 05:29N 63°07' E 007°45'0 0.0
2018-Sep-19 05:02N 63°07' E 007°45'0 0.1
2018-Sep-19 04:59N 63°07' E 007°45'0 0.0
2018-Sep-19 04:29N 63°07' E 007°45'0 0.0
2018-Sep-19 04:02N 63°07' E 007°46'0 0.1
2018-Sep-19 03:59N 63°07' E 007°46'0 0.0
2018-Sep-19 03:29N 63°07' E 007°45'0 0.0
2018-Sep-19 03:02N 63°07' E 007°45'0 0.0
2018-Sep-19 02:59N 63°07' E 007°45'0 0.0
2018-Sep-19 02:29N 63°07' E 007°45'0 0.0
2018-Sep-19 02:02N 63°07' E 007°45'0 0.0
2018-Sep-19 01:59N 63°07' E 007°45'0 0.0
2018-Sep-19 01:29N 63°07' E 007°46'0 0.0
2018-Sep-19 01:02N 63°07' E 007°45'0 0.1
2018-Sep-19 00:59N 63°07' E 007°45'0 0.0
2018-Sep-19 00:29N 63°07' E 007°45'0 0.0
2018-Sep-19 00:02N 63°07' E 007°45'0 0.0
2018-Sep-18 23:59N 63°07' E 007°45'0 0.0
2018-Sep-18 23:29N 63°07' E 007°45'0 0.0
2018-Sep-18 23:02N 63°07' E 007°45'0 0.1
2018-Sep-18 22:59N 63°07' E 007°45'0 0.0
2018-Sep-18 22:29N 63°07' E 007°45'0 0.0
2018-Sep-18 22:02N 63°07' E 007°45'0 0.1
2018-Sep-18 21:59N 63°07' E 007°45'0 0.0
2018-Sep-18 21:29N 63°07' E 007°45'0 0.0
2018-Sep-18 21:02N 63°07' E 007°45'0 0.0
2018-Sep-18 20:59N 63°07' E 007°45'0 0.0
2018-Sep-18 20:29N 63°07' E 007°46'0 0.0
2018-Sep-18 19:59N 63°07' E 007°46'0 0.0
2018-Sep-18 19:29N 63°07' E 007°46'0 0.0
2018-Sep-18 19:02N 63°07' E 007°45'0 0.1
2018-Sep-18 18:59N 63°07' E 007°45'0 0.0
2018-Sep-18 18:29N 63°07' E 007°45'0 0.0
2018-Sep-18 18:02N 63°07' E 007°45'0 0.0
2018-Sep-18 17:59N 63°07' E 007°45'0 0.0
2018-Sep-18 17:29N 63°07' E 007°45'0 0.0
2018-Sep-18 17:02N 63°07' E 007°45'0 0.0
2018-Sep-18 16:59N 63°07' E 007°46'0 0.0
2018-Sep-18 16:29N 63°07' E 007°46'0 0.0
2018-Sep-18 16:02N 63°07' E 007°46'0 0.0
2018-Sep-18 15:59N 63°07' E 007°46'0 0.0
2018-Sep-18 15:29N 63°07' E 007°45'0 0.0
2018-Sep-18 15:02N 63°07' E 007°45'0 0.0
2018-Sep-18 14:59N 63°07' E 007°45'0 0.0
2018-Sep-18 14:29N 63°07' E 007°46'0 0.0
2018-Sep-18 13:59N 63°07' E 007°45'0 0.0
2018-Sep-18 13:29N 63°07' E 007°46'0 0.0
2018-Sep-18 13:02N 63°07' E 007°45'0 0.1
2018-Sep-18 12:59N 63°07' E 007°45'0 0.0
2018-Sep-18 12:29N 63°07' E 007°45'0 0.0
2018-Sep-18 12:02N 63°07' E 007°45'0 0.0
2018-Sep-18 11:59N 63°07' E 007°46'0 0.0
2018-Sep-18 11:29N 63°07' E 007°45'0 0.0
2018-Sep-18 11:02N 63°07' E 007°45'0 0.0
2018-Sep-18 10:59N 63°07' E 007°45'0 0.0
2018-Sep-18 10:29N 63°07' E 007°45'0 0.0
2018-Sep-18 10:02N 63°07' E 007°45'0 0.1
2018-Sep-18 09:59N 63°07' E 007°45'0 0.0
2018-Sep-18 09:29N 63°07' E 007°45'0 0.0
2018-Sep-18 09:02N 63°07' E 007°45'0 0.0
2018-Sep-18 08:59N 63°07' E 007°45'0 0.0
2018-Sep-18 08:29N 63°07' E 007°46'0 0.0
2018-Sep-18 08:02N 63°07' E 007°45'0 0.0
2018-Sep-18 07:59N 63°07' E 007°45'0 0.0
2018-Sep-18 07:29N 63°07' E 007°45'0 0.0
2018-Sep-18 07:02N 63°07' E 007°45'0 0.0
2018-Sep-18 06:59N 63°07' E 007°45'0 0.0
2018-Sep-18 06:29N 63°07' E 007°45'0 0.0
2018-Sep-18 06:02N 63°07' E 007°45'0 0.1
2018-Sep-18 05:59N 63°07' E 007°45'0 0.0
2018-Sep-18 05:29N 63°07' E 007°45'0 0.0
2018-Sep-18 05:02N 63°07' E 007°45'0 0.0
2018-Sep-18 04:59N 63°07' E 007°45'0 0.0
2018-Sep-18 04:29N 63°07' E 007°45'0 0.0
2018-Sep-18 04:02N 63°07' E 007°45'0 0.0
2018-Sep-18 03:59N 63°07' E 007°45'0 0.0
2018-Sep-18 03:29N 63°07' E 007°45'0 0.0
2018-Sep-18 03:02N 63°07' E 007°45'0 0.0
2018-Sep-18 02:59N 63°07' E 007°45'0 0.0
2018-Sep-18 02:29N 63°07' E 007°45'0 0.0
2018-Sep-18 02:02N 63°07' E 007°45'0 0.1
2018-Sep-18 01:59N 63°07' E 007°45'0 0.0
2018-Sep-18 01:29N 63°07' E 007°45'0 0.0
2018-Sep-18 01:02N 63°07' E 007°45'0 0.0
2018-Sep-18 00:59N 63°07' E 007°45'0 0.0
2018-Sep-18 00:29N 63°07' E 007°45'0 0.0
2018-Sep-18 00:02N 63°07' E 007°45'0 0.1
2018-Sep-17 23:59N 63°07' E 007°45'0 0.0
2018-Sep-17 23:29N 63°07' E 007°45'0 0.0
2018-Sep-17 23:02N 63°07' E 007°45'0 0.0
2018-Sep-17 22:59N 63°07' E 007°45'0 0.0
2018-Sep-17 22:29N 63°07' E 007°45'0 0.0
2018-Sep-17 22:02N 63°07' E 007°45'0 0.0
2018-Sep-17 21:59N 63°07' E 007°46'0 0.0
2018-Sep-17 21:29N 63°07' E 007°45'0 0.0
2018-Sep-17 21:02N 63°07' E 007°45'0 0.1
2018-Sep-17 20:59N 63°07' E 007°45'0 0.0
2018-Sep-17 20:29N 63°07' E 007°45'0 0.0
2018-Sep-17 20:02N 63°07' E 007°45'0 0.0
2018-Sep-17 19:59N 63°07' E 007°46'0 0.0
2018-Sep-17 19:29N 63°07' E 007°45'0 0.0
2018-Sep-17 19:02N 63°07' E 007°45'0 0.0
2018-Sep-17 18:59N 63°07' E 007°46'0 0.0
2018-Sep-17 18:29N 63°07' E 007°45'0 0.0
2018-Sep-17 18:02N 63°07' E 007°45'0 0.0
2018-Sep-17 17:59N 63°07' E 007°46'0 0.0
2018-Sep-17 17:29N 63°07' E 007°46'0 0.0
2018-Sep-17 17:02N 63°07' E 007°45'0 0.1
2018-Sep-17 16:59N 63°07' E 007°45'0 0.0
2018-Sep-17 16:29N 63°07' E 007°45'0 0.0
2018-Sep-17 16:02N 63°07' E 007°45'0 0.0
2018-Sep-17 15:59N 63°07' E 007°45'0 0.0
2018-Sep-17 15:29N 63°07' E 007°46'0 0.0
2018-Sep-17 15:02N 63°07' E 007°45'0 0.0
2018-Sep-17 14:59N 63°07' E 007°45'0 0.0
2018-Sep-17 14:29N 63°07' E 007°45'0 0.0
2018-Sep-17 13:59N 63°07' E 007°45'0 0.0
2018-Sep-17 13:29N 63°07' E 007°46'0 0.0
2018-Sep-17 13:02N 63°07' E 007°45'0 0.0
2018-Sep-17 12:59N 63°07' E 007°46'0 0.0
2018-Sep-17 12:29N 63°07' E 007°45'0 0.0
2018-Sep-17 12:02N 63°07' E 007°46'0 0.0
2018-Sep-17 11:59N 63°07' E 007°46'0 0.0
2018-Sep-17 11:29N 63°07' E 007°45'0 0.0
2018-Sep-17 11:02N 63°07' E 007°45'0 0.0
2018-Sep-17 10:59N 63°07' E 007°45'0 0.0
2018-Sep-17 10:29N 63°07' E 007°45'0 0.0
2018-Sep-17 10:02N 63°07' E 007°45'0 0.0
2018-Sep-17 09:59N 63°07' E 007°45'0 0.0
2018-Sep-17 09:29N 63°07' E 007°46'0 0.0
2018-Sep-17 09:02N 63°07' E 007°45'0 0.0
2018-Sep-17 08:59N 63°07' E 007°45'0 0.0
2018-Sep-17 08:29N 63°07' E 007°45'0 0.0
2018-Sep-17 08:02N 63°07' E 007°45'0 0.0
2018-Sep-17 07:59N 63°07' E 007°45'0 0.0
2018-Sep-17 07:29N 63°07' E 007°45'0 0.0
2018-Sep-17 07:02N 63°07' E 007°45'0 0.0
2018-Sep-17 06:59N 63°07' E 007°45'0 0.0
2018-Sep-17 06:29N 63°07' E 007°45'0 0.0
2018-Sep-17 06:02N 63°07' E 007°45'0 0.1
2018-Sep-17 05:59N 63°07' E 007°45'0 0.0
2018-Sep-17 05:29N 63°07' E 007°45'0 0.0
2018-Sep-17 05:02N 63°07' E 007°45'0 0.0
2018-Sep-17 04:59N 63°07' E 007°45'0 0.0
2018-Sep-17 04:29N 63°07' E 007°45'0 0.0
2018-Sep-17 04:02N 63°07' E 007°46'0 0.0
2018-Sep-17 03:59N 63°07' E 007°46'0 0.0
2018-Sep-17 03:29N 63°07' E 007°45'0 0.0
2018-Sep-17 03:02N 63°07' E 007°45'0 0.0
2018-Sep-17 02:59N 63°07' E 007°45'0 0.0
2018-Sep-17 02:29N 63°07' E 007°45'0 0.0
2018-Sep-17 02:02N 63°07' E 007°45'0 0.0
2018-Sep-17 01:59N 63°07' E 007°46'0 0.0
2018-Sep-17 01:29N 63°07' E 007°45'0 0.0
2018-Sep-17 01:02N 63°07' E 007°45'0 0.1
2018-Sep-17 00:59N 63°07' E 007°45'0 0.0
2018-Sep-17 00:29N 63°07' E 007°45'0 0.0
2018-Sep-17 00:02N 63°07' E 007°45'0 0.0
2018-Sep-16 23:59N 63°07' E 007°45'0 0.0
2018-Sep-16 23:29N 63°07' E 007°46'0 0.0
2018-Sep-16 23:02N 63°07' E 007°45'0 0.0
2018-Sep-16 22:59N 63°07' E 007°45'0 0.0
2018-Sep-16 22:29N 63°07' E 007°45'0 0.0
2018-Sep-16 22:02N 63°07' E 007°45'0 0.0
2018-Sep-16 21:59N 63°07' E 007°46'0 0.0
2018-Sep-16 21:29N 63°07' E 007°45'0 0.0
2018-Sep-16 21:02N 63°07' E 007°45'0 0.0
2018-Sep-16 20:59N 63°07' E 007°46'0 0.0
2018-Sep-16 20:29N 63°07' E 007°45'0 0.0
2018-Sep-16 20:02N 63°07' E 007°46'0 0.0
2018-Sep-16 19:59N 63°07' E 007°46'0 0.0
2018-Sep-16 19:29N 63°07' E 007°46'0 0.0
2018-Sep-16 19:02N 63°07' E 007°45'0 0.0
2018-Sep-16 18:59N 63°07' E 007°46'0 0.0
2018-Sep-16 18:29N 63°07' E 007°45'0 0.0
2018-Sep-16 18:02N 63°07' E 007°45'0 0.1
2018-Sep-16 17:59N 63°07' E 007°45'0 0.0
2018-Sep-16 17:29N 63°07' E 007°45'0 0.0
2018-Sep-16 17:02N 63°07' E 007°45'0 0.0
2018-Sep-16 16:59N 63°07' E 007°45'0 0.0
2018-Sep-16 16:29N 63°07' E 007°46'0 0.0
2018-Sep-16 16:02N 63°07' E 007°45'0 0.1
2018-Sep-16 15:59N 63°07' E 007°45'0 0.0
2018-Sep-16 15:29N 63°07' E 007°45'0 0.0
2018-Sep-16 15:02N 63°07' E 007°45'0 0.0
2018-Sep-16 14:59N 63°07' E 007°45'0 0.0
2018-Sep-16 13:59N 63°07' E 007°46'0 0.0
2018-Sep-16 13:29N 63°07' E 007°46'0 0.0
2018-Sep-16 13:02N 63°07' E 007°45'0 0.0
2018-Sep-16 12:59N 63°07' E 007°45'0 0.0
2018-Sep-16 12:29N 63°07' E 007°45'0 0.0
2018-Sep-16 12:02N 63°07' E 007°45'0 0.0
2018-Sep-16 11:59N 63°07' E 007°45'0 0.0
2018-Sep-16 11:29N 63°07' E 007°45'0 0.0
2018-Sep-16 11:02N 63°07' E 007°45'0 0.0
2018-Sep-16 10:59N 63°07' E 007°45'0 0.0
2018-Sep-16 10:29N 63°07' E 007°45'0 0.0
2018-Sep-16 10:02N 63°07' E 007°45'0 0.0
2018-Sep-16 09:59N 63°07' E 007°45'0 0.0
2018-Sep-16 09:29N 63°07' E 007°45'0 0.0
2018-Sep-16 09:02N 63°07' E 007°45'0 0.0
2018-Sep-16 08:59N 63°07' E 007°45'0 0.0
2018-Sep-16 08:29N 63°07' E 007°45'0 0.0
2018-Sep-16 08:02N 63°07' E 007°45'0 0.0
2018-Sep-16 07:59N 63°07' E 007°45'0 0.0
2018-Sep-16 07:29N 63°07' E 007°46'0 0.0
2018-Sep-16 07:02N 63°07' E 007°46'0 0.0
2018-Sep-16 06:59N 63°07' E 007°45'0 0.0
2018-Sep-16 06:29N 63°07' E 007°45'0 0.0
2018-Sep-16 06:02N 63°07' E 007°45'0 0.0
2018-Sep-16 05:59N 63°07' E 007°45'0 0.0
2018-Sep-16 05:29N 63°07' E 007°45'0 0.0
2018-Sep-16 05:02N 63°07' E 007°45'0 0.0
2018-Sep-16 04:59N 63°07' E 007°45'0 0.0
2018-Sep-16 04:29N 63°07' E 007°46'0 0.0
2018-Sep-16 04:02N 63°07' E 007°46'0 0.1
2018-Sep-16 03:59N 63°07' E 007°45'0 0.0
2018-Sep-16 03:29N 63°07' E 007°45'0 0.0
2018-Sep-16 03:02N 63°07' E 007°45'0 0.0
2018-Sep-16 02:59N 63°07' E 007°45'0 0.0
2018-Sep-16 02:29N 63°07' E 007°45'0 0.0
2018-Sep-16 02:02N 63°07' E 007°45'0 0.0
2018-Sep-16 01:59N 63°07' E 007°46'0 0.0
2018-Sep-16 01:29N 63°07' E 007°46'0 0.0
2018-Sep-16 01:02N 63°07' E 007°45'0 0.1
2018-Sep-16 00:59N 63°07' E 007°45'0 0.0
2018-Sep-16 00:29N 63°07' E 007°45'0 0.0
2018-Sep-16 00:02N 63°07' E 007°45'0 0.0
2018-Sep-15 23:59N 63°07' E 007°45'0 0.0
2018-Sep-15 23:29N 63°07' E 007°46'0 0.0
2018-Sep-15 23:02N 63°07' E 007°45'0 0.1
2018-Sep-15 22:59N 63°07' E 007°45'0 0.0
2018-Sep-15 22:29N 63°07' E 007°45'0 0.0
2018-Sep-15 22:02N 63°07' E 007°45'0 0.0
2018-Sep-15 21:59N 63°07' E 007°46'0 0.0
2018-Sep-15 21:29N 63°07' E 007°45'0 0.0
2018-Sep-15 21:02N 63°07' E 007°46'0 0.0
2018-Sep-15 20:59N 63°07' E 007°46'0 0.0
2018-Sep-15 20:26N 63°07' E 007°45'0 0.0
2018-Sep-15 20:02N 63°07' E 007°46'0 0.1
2018-Sep-15 19:59N 63°07' E 007°45'0 0.0
2018-Sep-15 19:29N 63°07' E 007°46'0 0.0
2018-Sep-15 19:02N 63°07' E 007°45'0 0.1
2018-Sep-15 18:56N 63°07' E 007°46'0 0.0
2018-Sep-15 18:29N 63°07' E 007°45'0 0.0
2018-Sep-15 18:02N 63°07' E 007°46'0 0.0
2018-Sep-15 17:59N 63°07' E 007°46'0 0.0
2018-Sep-15 17:29N 63°07' E 007°45'0 0.0
2018-Sep-15 17:02N 63°07' E 007°45'0 0.0
2018-Sep-15 16:59N 63°07' E 007°45'0 0.0
2018-Sep-15 16:29N 63°07' E 007°46'0 0.0
2018-Sep-15 16:02N 63°07' E 007°45'0 0.0
2018-Sep-15 15:59N 63°07' E 007°45'0 0.0
2018-Sep-15 15:29N 63°07' E 007°45'0 0.0
2018-Sep-15 14:59N 63°07' E 007°45'0 0.0
2018-Sep-15 14:29N 63°07' E 007°45'0 0.0
2018-Sep-15 13:59N 63°07' E 007°46'0 0.0
2018-Sep-15 13:29N 63°07' E 007°45'0 0.0
2018-Sep-15 13:02N 63°07' E 007°46'0 0.0
2018-Sep-15 12:59N 63°07' E 007°46'0 0.0
2018-Sep-15 12:29N 63°07' E 007°45'0 0.0
2018-Sep-15 12:02N 63°07' E 007°46'0 0.1
2018-Sep-15 11:59N 63°07' E 007°45'0 0.0
2018-Sep-15 11:29N 63°07' E 007°45'0 0.0
2018-Sep-15 11:02N 63°07' E 007°45'0 0.0
2018-Sep-15 10:59N 63°07' E 007°45'0 0.0
2018-Sep-15 10:29N 63°07' E 007°45'0 0.0
2018-Sep-15 10:02N 63°07' E 007°45'0 0.0
2018-Sep-15 09:59N 63°07' E 007°45'0 0.0
2018-Sep-15 09:29N 63°07' E 007°45'0 0.0
2018-Sep-15 09:02N 63°07' E 007°45'0 0.0
2018-Sep-15 08:59N 63°07' E 007°45'0 0.0
2018-Sep-15 08:29N 63°07' E 007°45'0 0.0
2018-Sep-15 08:02N 63°07' E 007°46'0 0.0
2018-Sep-15 07:59N 63°07' E 007°45'0 0.0
2018-Sep-15 07:29N 63°07' E 007°45'0 0.0
2018-Sep-15 07:02N 63°07' E 007°46'0 0.1
2018-Sep-15 06:59N 63°07' E 007°45'0 0.0
2018-Sep-15 06:29N 63°07' E 007°45'0 0.0
2018-Sep-15 06:02N 63°07' E 007°45'0 0.0
2018-Sep-15 05:59N 63°07' E 007°45'0 0.0
2018-Sep-15 05:29N 63°07' E 007°45'0 0.0
2018-Sep-15 05:02N 63°07' E 007°45'0 0.0
2018-Sep-15 04:59N 63°07' E 007°45'0 0.0
2018-Sep-15 04:29N 63°07' E 007°46'0 0.0
2018-Sep-15 04:02N 63°07' E 007°46'0 0.0
2018-Sep-15 03:59N 63°07' E 007°45'0 0.0
2018-Sep-15 03:29N 63°07' E 007°45'0 0.0
2018-Sep-15 03:02N 63°07' E 007°45'0 0.0
2018-Sep-15 02:59N 63°07' E 007°45'0 0.0
2018-Sep-15 02:29N 63°07' E 007°46'0 0.0
2018-Sep-15 02:02N 63°07' E 007°45'0 0.1
2018-Sep-15 01:59N 63°07' E 007°46'0 0.0
2018-Sep-15 01:29N 63°07' E 007°45'0 0.0
2018-Sep-15 01:02N 63°07' E 007°46'0 0.0
2018-Sep-15 00:59N 63°07' E 007°45'0 0.0
2018-Sep-15 00:29N 63°07' E 007°46'0 0.0
2018-Sep-15 00:02N 63°07' E 007°45'0 0.0
2018-Sep-14 23:59N 63°07' E 007°45'0 0.0
2018-Sep-14 23:29N 63°07' E 007°46'0 0.0
2018-Sep-14 23:02N 63°07' E 007°45'0 0.0
2018-Sep-14 22:59N 63°07' E 007°45'0 0.0
2018-Sep-14 22:29N 63°07' E 007°46'0 0.0
2018-Sep-14 22:02N 63°07' E 007°45'0 0.0
2018-Sep-14 21:59N 63°07' E 007°45'0 0.0
2018-Sep-14 21:29N 63°07' E 007°45'0 0.0
2018-Sep-14 21:02N 63°07' E 007°46'0 0.0
2018-Sep-14 20:59N 63°07' E 007°46'0 0.0
2018-Sep-14 20:29N 63°07' E 007°46'0 0.0
2018-Sep-14 20:02N 63°07' E 007°46'0 0.0
2018-Sep-14 19:59N 63°07' E 007°45'0 0.0
2018-Sep-14 19:29N 63°07' E 007°45'0 0.0
2018-Sep-14 19:02N 63°07' E 007°45'0 0.1
2018-Sep-14 18:59N 63°07' E 007°45'0 0.0
2018-Sep-14 18:29N 63°07' E 007°46'0 0.0
2018-Sep-14 18:02N 63°07' E 007°46'0 0.0
2018-Sep-14 17:59N 63°07' E 007°45'0 0.0
2018-Sep-14 17:29N 63°07' E 007°45'0 0.0
2018-Sep-14 17:02N 63°07' E 007°46'0 0.1
2018-Sep-14 16:59N 63°07' E 007°45'0 0.0
2018-Sep-14 16:29N 63°07' E 007°46'0 0.0
2018-Sep-14 16:02N 63°07' E 007°45'0 0.0
2018-Sep-14 15:59N 63°07' E 007°46'0 0.0
2018-Sep-14 15:29N 63°07' E 007°45'0 0.0
2018-Sep-14 15:02N 63°07' E 007°45'0 0.1
2018-Sep-14 14:59N 63°07' E 007°45'0 0.0
2018-Sep-14 14:29N 63°07' E 007°46'0 0.0
2018-Sep-14 13:59N 63°07' E 007°45'0 0.0
2018-Sep-14 13:29N 63°07' E 007°46'0 0.0
2018-Sep-14 13:02N 63°07' E 007°45'0 0.0
2018-Sep-14 12:59N 63°07' E 007°45'0 0.0
2018-Sep-14 12:29N 63°07' E 007°45'0 0.0
2018-Sep-14 12:02N 63°07' E 007°46'0 0.0
2018-Sep-14 11:59N 63°07' E 007°45'0 0.0
2018-Sep-14 11:29N 63°07' E 007°46'0 0.0
2018-Sep-14 11:02N 63°07' E 007°45'0 0.1
2018-Sep-14 10:59N 63°07' E 007°45'0 0.0
2018-Sep-14 10:29N 63°07' E 007°45'0 0.0
2018-Sep-14 10:02N 63°07' E 007°45'0 0.1
2018-Sep-14 09:59N 63°07' E 007°45'0 0.0
2018-Sep-14 09:29N 63°07' E 007°45'0 0.4
2018-Sep-14 09:03N 63°07' E 007°46'0 5.2
2018-Sep-14 09:00N 63°07' E 007°46'0 1.0
2018-Sep-14 08:30N 63°08' E 007°47'1 2.9
2018-Sep-14 08:03N 63°09' E 007°48'0 0.6
2018-Sep-14 08:00N 63°09' E 007°48'1 2.7
2018-Sep-14 07:30N 63°08' E 007°47'1 2.0
2018-Sep-14 07:03N 63°07' E 007°45'0 0.0
2018-Sep-14 07:00N 63°07' E 007°45'0 0.0
2018-Sep-14 06:30N 63°07' E 007°45'0 0.0
2018-Sep-14 06:03N 63°07' E 007°45'0 0.0
2018-Sep-14 06:00N 63°07' E 007°45'0 0.0
2018-Sep-14 05:30N 63°07' E 007°45'0 0.0
2018-Sep-14 05:03N 63°07' E 007°45'0 0.0
2018-Sep-14 05:00N 63°07' E 007°45'0 0.0
2018-Sep-14 04:30N 63°07' E 007°45'0 0.0
2018-Sep-14 04:03N 63°07' E 007°45'0 0.0
2018-Sep-14 04:00N 63°07' E 007°46'0 0.0
2018-Sep-14 03:30N 63°07' E 007°45'0 0.0
2018-Sep-14 03:03N 63°07' E 007°46'0 0.0
2018-Sep-14 03:00N 63°07' E 007°45'0 0.0
2018-Sep-14 02:30N 63°07' E 007°45'0 0.0
2018-Sep-14 02:03N 63°07' E 007°45'0 0.0
2018-Sep-14 02:00N 63°07' E 007°45'0 0.0
2018-Sep-14 01:30N 63°07' E 007°45'0 0.0
2018-Sep-14 01:03N 63°07' E 007°45'0 0.1
2018-Sep-14 01:00N 63°07' E 007°45'0 0.0
2018-Sep-14 00:30N 63°07' E 007°45'0 0.0
2018-Sep-14 00:03N 63°07' E 007°45'0 0.0
2018-Sep-14 00:00N 63°07' E 007°45'0 0.0
2018-Sep-13 23:30N 63°07' E 007°46'0 0.0
2018-Sep-13 23:03N 63°07' E 007°45'0 0.0
2018-Sep-13 23:00N 63°07' E 007°45'0 0.0
2018-Sep-13 22:30N 63°07' E 007°45'0 0.0
2018-Sep-13 22:03N 63°07' E 007°45'0 0.0
2018-Sep-13 22:00N 63°07' E 007°46'0 0.0
2018-Sep-13 21:30N 63°07' E 007°45'0 0.0
2018-Sep-13 21:03N 63°07' E 007°45'0 0.0
2018-Sep-13 21:00N 63°07' E 007°45'0 0.0
2018-Sep-13 20:30N 63°07' E 007°46'0 0.0
2018-Sep-13 20:03N 63°07' E 007°46'0 0.0
2018-Sep-13 20:00N 63°07' E 007°46'0 0.0
2018-Sep-13 19:30N 63°07' E 007°46'0 0.0
2018-Sep-13 19:03N 63°07' E 007°45'0 0.1
2018-Sep-13 19:00N 63°07' E 007°45'0 0.0
2018-Sep-13 18:30N 63°07' E 007°45'0 0.0
2018-Sep-13 18:03N 63°07' E 007°46'0 0.0
2018-Sep-13 18:00N 63°07' E 007°46'0 0.0
2018-Sep-13 17:30N 63°07' E 007°45'0 0.0
2018-Sep-13 17:03N 63°07' E 007°45'0 0.1
2018-Sep-13 17:00N 63°07' E 007°45'0 0.0
2018-Sep-13 16:30N 63°07' E 007°46'0 0.0
2018-Sep-13 16:03N 63°07' E 007°46'0 0.0
2018-Sep-13 16:00N 63°07' E 007°45'0 0.0
2018-Sep-13 15:30N 63°07' E 007°45'0 0.0
2018-Sep-13 15:03N 63°07' E 007°45'0 0.0
2018-Sep-13 15:00N 63°07' E 007°45'0 0.0
2018-Sep-13 14:30N 63°07' E 007°45'0 0.0
2018-Sep-13 14:00N 63°07' E 007°45'0 0.0
2018-Sep-13 13:30N 63°07' E 007°45'0 0.0
2018-Sep-13 13:03N 63°07' E 007°45'0 0.1
2018-Sep-13 13:00N 63°07' E 007°45'0 0.0
2018-Sep-13 12:30N 63°07' E 007°45'0 0.0
2018-Sep-13 12:03N 63°07' E 007°45'0 0.1
2018-Sep-13 12:00N 63°07' E 007°45'0 0.0
2018-Sep-13 11:30N 63°07' E 007°45'0 0.0
2018-Sep-13 11:03N 63°07' E 007°45'0 0.1
2018-Sep-13 11:00N 63°07' E 007°45'0 0.0
2018-Sep-13 10:30N 63°07' E 007°45'0 0.0
2018-Sep-13 10:03N 63°07' E 007°45'0 0.0
2018-Sep-13 10:00N 63°07' E 007°45'0 0.0
2018-Sep-13 09:30N 63°07' E 007°45'0 0.0
2018-Sep-13 09:03N 63°07' E 007°45'0 0.0
2018-Sep-13 09:00N 63°07' E 007°45'0 0.0
2018-Sep-13 08:30N 63°07' E 007°45'0 0.0
2018-Sep-13 08:03N 63°07' E 007°45'0 0.1
2018-Sep-13 08:00N 63°07' E 007°46'0 0.0
2018-Sep-13 07:30N 63°07' E 007°45'0 0.0
2018-Sep-13 07:03N 63°07' E 007°45'0 0.0
2018-Sep-13 07:00N 63°07' E 007°45'0 0.0
2018-Sep-13 06:30N 63°07' E 007°45'0 0.0
2018-Sep-13 06:03N 63°07' E 007°45'0 0.1
2018-Sep-13 06:00N 63°07' E 007°45'0 0.0
2018-Sep-13 05:30N 63°07' E 007°45'0 0.0
2018-Sep-13 05:03N 63°07' E 007°45'0 0.0
2018-Sep-13 05:00N 63°07' E 007°45'0 0.0
2018-Sep-13 04:30N 63°07' E 007°45'0 0.0
2018-Sep-13 04:03N 63°07' E 007°45'0 0.0
2018-Sep-13 04:00N 63°07' E 007°45'0 0.0
2018-Sep-13 03:30N 63°07' E 007°46'0 0.0
2018-Sep-13 03:03N 63°07' E 007°45'0 0.0
2018-Sep-13 03:00N 63°07' E 007°45'0 0.0
2018-Sep-13 02:30N 63°07' E 007°45'0 0.0
2018-Sep-13 02:03N 63°07' E 007°45'0 0.0
2018-Sep-13 02:00N 63°07' E 007°45'0 0.0
2018-Sep-13 01:30N 63°07' E 007°45'0 0.0
2018-Sep-13 01:03N 63°07' E 007°45'0 0.0
2018-Sep-13 01:00N 63°07' E 007°45'0 0.0
2018-Sep-13 00:30N 63°07' E 007°45'0 0.0
2018-Sep-13 00:03N 63°07' E 007°45'0 0.0
2018-Sep-13 00:00N 63°07' E 007°45'0 0.0
2018-Sep-12 23:30N 63°07' E 007°45'0 0.0
2018-Sep-12 23:03N 63°07' E 007°45'0 0.0
2018-Sep-12 23:00N 63°07' E 007°45'0 0.0
2018-Sep-12 22:30N 63°07' E 007°45'0 0.0
2018-Sep-12 22:03N 63°07' E 007°45'0 0.0
2018-Sep-12 22:00N 63°07' E 007°46'0 0.0
2018-Sep-12 21:30N 63°07' E 007°46'0 0.0
2018-Sep-12 21:03N 63°07' E 007°45'0 0.0
2018-Sep-12 21:00N 63°07' E 007°45'0 0.0
2018-Sep-12 20:30N 63°07' E 007°46'0 0.0
2018-Sep-12 20:03N 63°07' E 007°46'0 0.0
2018-Sep-12 20:00N 63°07' E 007°45'0 0.0
2018-Sep-12 19:30N 63°07' E 007°45'0 0.0
2018-Sep-12 19:03N 63°07' E 007°46'0 0.1
2018-Sep-12 19:00N 63°07' E 007°46'0 0.0
2018-Sep-12 18:30N 63°07' E 007°45'0 0.0
2018-Sep-12 18:03N 63°07' E 007°46'0 0.0
2018-Sep-12 18:00N 63°07' E 007°46'0 0.0
2018-Sep-12 17:30N 63°07' E 007°46'0 0.0
2018-Sep-12 17:03N 63°07' E 007°45'0 0.0
2018-Sep-12 17:00N 63°07' E 007°45'0 0.0
2018-Sep-12 16:30N 63°07' E 007°46'0 0.0
2018-Sep-12 16:03N 63°07' E 007°45'0 0.0
2018-Sep-12 16:00N 63°07' E 007°46'0 0.0
2018-Sep-12 15:30N 63°07' E 007°45'0 0.0
2018-Sep-12 15:03N 63°07' E 007°45'0 0.0
2018-Sep-12 15:00N 63°07' E 007°45'0 0.0
2018-Sep-12 14:03N 63°07' E 007°45'0 0.1
2018-Sep-12 14:00N 63°07' E 007°45'0 0.0
2018-Sep-12 13:30N 63°07' E 007°46'0 0.0
2018-Sep-12 13:03N 63°07' E 007°45'0 0.0
2018-Sep-12 13:00N 63°07' E 007°45'0 0.0
2018-Sep-12 12:30N 63°07' E 007°45'0 0.0
2018-Sep-12 12:03N 63°07' E 007°45'0 0.1
2018-Sep-12 12:00N 63°07' E 007°45'0 0.0
2018-Sep-12 11:30N 63°07' E 007°45'0 0.0
2018-Sep-12 11:03N 63°07' E 007°45'0 0.0
2018-Sep-12 11:00N 63°07' E 007°45'0 0.0
2018-Sep-12 10:30N 63°07' E 007°45'0 0.0
2018-Sep-12 10:03N 63°07' E 007°45'0 0.0
2018-Sep-12 10:00N 63°07' E 007°45'0 0.0
2018-Sep-12 09:30N 63°07' E 007°45'0 0.0
2018-Sep-12 09:03N 63°07' E 007°45'0 0.0
2018-Sep-12 09:00N 63°07' E 007°45'0 0.0
2018-Sep-12 08:30N 63°07' E 007°45'0 0.0
2018-Sep-12 08:03N 63°07' E 007°45'0 0.0
2018-Sep-12 08:00N 63°07' E 007°45'0 0.0
2018-Sep-12 07:30N 63°07' E 007°45'0 0.0
2018-Sep-12 07:03N 63°07' E 007°45'0 0.1
2018-Sep-12 07:00N 63°07' E 007°45'0 0.0
2018-Sep-12 06:30N 63°07' E 007°45'0 0.0
2018-Sep-12 06:03N 63°07' E 007°45'0 0.0
2018-Sep-12 06:00N 63°07' E 007°45'0 0.0
2018-Sep-12 05:30N 63°07' E 007°45'0 0.0
2018-Sep-12 05:03N 63°07' E 007°45'0 0.0
2018-Sep-12 05:00N 63°07' E 007°45'0 0.0
2018-Sep-12 04:30N 63°07' E 007°45'0 0.0
2018-Sep-12 04:03N 63°07' E 007°45'0 0.0
2018-Sep-12 04:00N 63°07' E 007°45'0 0.0
2018-Sep-12 03:30N 63°07' E 007°45'0 0.0
2018-Sep-12 03:03N 63°07' E 007°45'0 0.0
2018-Sep-12 03:00N 63°07' E 007°45'0 0.0
2018-Sep-12 02:30N 63°07' E 007°45'0 0.0
2018-Sep-12 02:03N 63°07' E 007°45'0 0.0
2018-Sep-12 02:00N 63°07' E 007°45'0 0.0
2018-Sep-12 01:30N 63°07' E 007°45'0 0.0
2018-Sep-12 01:03N 63°07' E 007°45'0 0.0
2018-Sep-12 01:00N 63°07' E 007°46'0 0.0
2018-Sep-12 00:30N 63°07' E 007°45'0 0.0
2018-Sep-12 00:03N 63°07' E 007°46'0 0.1
2018-Sep-12 00:00N 63°07' E 007°46'0 0.0
2018-Sep-11 23:30N 63°07' E 007°45'0 0.0
2018-Sep-11 23:03N 63°07' E 007°45'0 0.1
2018-Sep-11 23:00N 63°07' E 007°45'0 0.0
2018-Sep-11 22:30N 63°07' E 007°45'0 0.0
2018-Sep-11 22:03N 63°07' E 007°45'0 0.0
2018-Sep-11 22:00N 63°07' E 007°45'0 0.0
2018-Sep-11 21:30N 63°07' E 007°45'0 0.0
2018-Sep-11 21:03N 63°07' E 007°45'0 0.1
2018-Sep-11 21:00N 63°07' E 007°45'0 0.0
2018-Sep-11 20:30N 63°07' E 007°45'0 0.0
2018-Sep-11 20:03N 63°07' E 007°46'0 0.0
2018-Sep-11 20:00N 63°07' E 007°45'0 0.0
2018-Sep-11 19:30N 63°07' E 007°45'0 0.0
2018-Sep-11 19:03N 63°07' E 007°45'0 0.0
2018-Sep-11 19:00N 63°07' E 007°45'0 0.0
2018-Sep-11 18:30N 63°07' E 007°45'0 0.0
2018-Sep-11 18:03N 63°07' E 007°45'0 0.0
2018-Sep-11 18:00N 63°07' E 007°45'0 0.0
2018-Sep-11 17:30N 63°07' E 007°45'0 0.0
2018-Sep-11 17:03N 63°07' E 007°45'0 0.1
2018-Sep-11 17:00N 63°07' E 007°45'0 0.0
2018-Sep-11 16:30N 63°07' E 007°45'0 0.0
2018-Sep-11 16:03N 63°07' E 007°45'0 0.0
2018-Sep-11 16:00N 63°07' E 007°45'0 0.0
2018-Sep-11 15:30N 63°07' E 007°46'0 0.0
2018-Sep-11 15:03N 63°07' E 007°45'0 0.0
2018-Sep-11 15:00N 63°07' E 007°45'0 0.0
2018-Sep-11 14:30N 63°07' E 007°45'0 0.0
2018-Sep-11 14:00N 63°07' E 007°46'0 0.0
2018-Sep-11 13:30N 63°07' E 007°45'0 0.0
2018-Sep-11 13:03N 63°07' E 007°45'0 0.0
2018-Sep-11 13:00N 63°07' E 007°45'0 0.0
2018-Sep-11 12:30N 63°07' E 007°45'0 0.0
2018-Sep-11 12:03N 63°07' E 007°45'0 0.0
2018-Sep-11 12:00N 63°07' E 007°45'0 0.0
2018-Sep-11 11:30N 63°07' E 007°45'0 0.0
2018-Sep-11 11:03N 63°07' E 007°45'0 0.1
2018-Sep-11 11:00N 63°07' E 007°45'0 0.0
2018-Sep-11 10:30N 63°07' E 007°45'0 0.0
2018-Sep-11 10:03N 63°07' E 007°45'0 0.0
2018-Sep-11 10:00N 63°07' E 007°45'0 0.0
2018-Sep-11 09:30N 63°07' E 007°45'0 0.0
2018-Sep-11 09:03N 63°07' E 007°45'0 0.0
2018-Sep-11 09:00N 63°07' E 007°45'0 0.0
2018-Sep-11 08:30N 63°07' E 007°45'0 0.0
2018-Sep-11 08:03N 63°07' E 007°45'0 0.0
2018-Sep-11 08:00N 63°07' E 007°45'0 0.0
2018-Sep-11 07:30N 63°07' E 007°45'0 0.0
2018-Sep-11 07:03N 63°07' E 007°45'0 0.1
2018-Sep-11 07:00N 63°07' E 007°45'0 0.0
2018-Sep-11 06:30N 63°07' E 007°45'0 0.0
2018-Sep-11 06:03N 63°07' E 007°46'0 0.0
2018-Sep-11 06:00N 63°07' E 007°45'0 0.0
2018-Sep-11 05:30N 63°07' E 007°45'0 0.0
2018-Sep-11 05:03N 63°07' E 007°46'0 0.1
2018-Sep-11 05:00N 63°07' E 007°46'0 0.0
2018-Sep-11 04:30N 63°07' E 007°45'0 0.0
2018-Sep-11 04:03N 63°07' E 007°45'0 0.0
2018-Sep-11 04:00N 63°07' E 007°45'0 0.0
2018-Sep-11 03:30N 63°07' E 007°45'0 0.0
2018-Sep-11 03:03N 63°07' E 007°45'0 0.1
2018-Sep-11 03:00N 63°07' E 007°45'0 0.0
2018-Sep-11 02:30N 63°07' E 007°45'0 0.0
2018-Sep-11 02:03N 63°07' E 007°45'0 0.0
2018-Sep-11 02:00N 63°07' E 007°46'0 0.0
2018-Sep-11 01:30N 63°07' E 007°45'0 0.0
2018-Sep-11 01:03N 63°07' E 007°45'0 0.1
2018-Sep-11 01:00N 63°07' E 007°45'0 0.0
2018-Sep-11 00:30N 63°07' E 007°45'0 0.0
2018-Sep-11 00:03N 63°07' E 007°45'0 0.1
2018-Sep-11 00:00N 63°07' E 007°46'0 0.0
2018-Sep-10 23:30N 63°07' E 007°45'0 0.0
2018-Sep-10 23:03N 63°07' E 007°45'0 0.0
2018-Sep-10 23:00N 63°07' E 007°45'0 0.0
2018-Sep-10 22:30N 63°07' E 007°46'0 0.0
2018-Sep-10 22:03N 63°07' E 007°45'0 0.0
2018-Sep-10 22:00N 63°07' E 007°45'0 0.0
2018-Sep-10 21:30N 63°07' E 007°46'0 0.0
2018-Sep-10 21:03N 63°07' E 007°45'0 0.1
2018-Sep-10 21:00N 63°07' E 007°46'0 0.0
2018-Sep-10 20:30N 63°07' E 007°45'0 0.0
2018-Sep-10 20:03N 63°07' E 007°45'0 0.0
2018-Sep-10 20:00N 63°07' E 007°46'0 0.0
2018-Sep-10 19:30N 63°07' E 007°45'0 0.0
2018-Sep-10 19:03N 63°07' E 007°46'0 0.1
2018-Sep-10 18:57N 63°07' E 007°45'0 0.0
2018-Sep-10 18:30N 63°07' E 007°45'0 0.0
2018-Sep-10 18:03N 63°07' E 007°46'0 0.1
2018-Sep-10 18:00N 63°07' E 007°45'0 0.0
2018-Sep-10 17:30N 63°07' E 007°46'0 0.0
2018-Sep-10 17:03N 63°07' E 007°45'0 0.0
2018-Sep-10 17:00N 63°07' E 007°45'0 0.0
2018-Sep-10 16:30N 63°07' E 007°45'0 0.0
2018-Sep-10 16:03N 63°07' E 007°45'0 0.0
2018-Sep-10 16:00N 63°07' E 007°45'0 0.0
2018-Sep-10 15:30N 63°07' E 007°45'0 0.0
2018-Sep-10 15:03N 63°07' E 007°45'0 0.0
2018-Sep-10 15:00N 63°07' E 007°45'0 0.0
2018-Sep-10 14:03N 63°07' E 007°45'0 0.0
2018-Sep-10 14:00N 63°07' E 007°46'0 0.0
2018-Sep-10 13:30N 63°07' E 007°45'0 0.0
2018-Sep-10 13:03N 63°07' E 007°45'0 0.0
2018-Sep-10 13:00N 63°07' E 007°45'0 0.0
2018-Sep-10 12:30N 63°07' E 007°46'0 0.0
2018-Sep-10 12:03N 63°07' E 007°45'0 0.1
2018-Sep-10 12:00N 63°07' E 007°45'0 0.0
2018-Sep-10 11:30N 63°07' E 007°45'0 0.0
2018-Sep-10 11:03N 63°07' E 007°45'0 0.1
2018-Sep-10 10:57N 63°07' E 007°45'0 0.0
2018-Sep-10 10:30N 63°07' E 007°45'0 0.0
2018-Sep-10 10:00N 63°07' E 007°45'0 0.0
2018-Sep-10 09:30N 63°07' E 007°45'0 0.0
2018-Sep-10 09:03N 63°07' E 007°45'0 0.0
2018-Sep-10 09:00N 63°07' E 007°45'0 0.0
2018-Sep-10 08:30N 63°07' E 007°45'0 0.0
2018-Sep-10 08:03N 63°07' E 007°45'0 0.1
2018-Sep-10 08:00N 63°07' E 007°45'0 0.0
2018-Sep-10 07:30N 63°07' E 007°45'0 0.0
2018-Sep-10 07:03N 63°07' E 007°45'0 0.1
2018-Sep-10 07:00N 63°07' E 007°46'0 0.0
2018-Sep-10 06:30N 63°07' E 007°45'0 0.0
2018-Sep-10 06:03N 63°07' E 007°45'0 0.1
2018-Sep-10 06:00N 63°07' E 007°45'0 0.0
2018-Sep-10 05:30N 63°07' E 007°45'0 0.0
2018-Sep-10 05:03N 63°07' E 007°46'0 0.0
2018-Sep-10 05:00N 63°07' E 007°46'0 0.0
2018-Sep-10 04:30N 63°07' E 007°46'0 0.0
2018-Sep-10 04:03N 63°07' E 007°45'0 0.0
2018-Sep-10 04:00N 63°07' E 007°45'0 0.0
2018-Sep-10 03:30N 63°07' E 007°45'0 0.0
2018-Sep-10 03:03N 63°07' E 007°45'0 0.0
2018-Sep-10 03:00N 63°07' E 007°45'0 0.0
2018-Sep-10 02:30N 63°07' E 007°45'0 0.0
2018-Sep-10 02:03N 63°07' E 007°45'0 0.0
2018-Sep-10 02:00N 63°07' E 007°45'0 0.0
2018-Sep-10 01:30N 63°07' E 007°45'0 0.0
2018-Sep-10 01:03N 63°07' E 007°45'0 0.1
2018-Sep-10 01:00N 63°07' E 007°45'0 0.0
2018-Sep-10 00:30N 63°07' E 007°45'0 0.0
2018-Sep-10 00:03N 63°07' E 007°46'0 0.1
2018-Sep-10 00:00N 63°07' E 007°45'0 0.0
2018-Sep-09 23:30N 63°07' E 007°45'0 0.0
2018-Sep-09 23:03N 63°07' E 007°45'0 0.0
2018-Sep-09 23:00N 63°07' E 007°45'0 0.0
2018-Sep-09 22:30N 63°07' E 007°45'0 0.0
2018-Sep-09 22:03N 63°07' E 007°45'0 0.0
2018-Sep-09 22:00N 63°07' E 007°45'0 0.0
2018-Sep-09 21:30N 63°07' E 007°45'0 0.0
2018-Sep-09 21:03N 63°07' E 007°45'0 0.1
2018-Sep-09 21:00N 63°07' E 007°45'0 0.0
2018-Sep-09 20:30N 63°07' E 007°46'0 0.0
2018-Sep-09 20:03N 63°07' E 007°45'0 0.0
2018-Sep-09 20:00N 63°07' E 007°46'0 0.0
2018-Sep-09 19:30N 63°07' E 007°45'0 0.0
2018-Sep-09 19:03N 63°07' E 007°46'0 0.1
2018-Sep-09 19:00N 63°07' E 007°45'0 0.0
2018-Sep-09 18:30N 63°07' E 007°45'0 0.0
2018-Sep-09 18:03N 63°07' E 007°45'0 0.1
2018-Sep-09 18:00N 63°07' E 007°46'  

Dump ship's entire track history